<?xml version="1.0" encoding="UTF-8" standalone="no" ?>
<gpx xmlns="http://www.topografix.com/GPX/1/1" xmlns:xsi="http://www.w3.org/2001/XMLSchema-instance" xsi:schemaLocation="http://www.topografix.com/GPX/1/1 http://www.topografix.com/GPX/1/1/gpx.xsd" version="1.1" creator="VisuGPX - https://www.visugpx.com">
  <metadata>
    <name>Le Semnoz</name>
    <desc><![CDATA[Initiation ski de rando]]></desc>
  </metadata>
  <trk>
    <name><![CDATA[Le Semnoz]]></name>
    <trkseg>
      <trkpt lat="45.80652" lon="6.10145">
        <ele>1494</ele>
        <time>2013-03-23T16:58:28.000Z</time>
      </trkpt>
      <trkpt lat="45.80648" lon="6.10146">
        <ele>1493.8000488281</ele>
        <time>2013-03-23T16:58:55.000Z</time>
      </trkpt>
      <trkpt lat="45.80641" lon="6.10142">
        <ele>1493.4000244141</ele>
        <time>2013-03-23T16:59:03.000Z</time>
      </trkpt>
      <trkpt lat="45.80642" lon="6.10134">
        <ele>1493.4000244141</ele>
        <time>2013-03-23T16:59:09.000Z</time>
      </trkpt>
      <trkpt lat="45.80644" lon="6.10134">
        <ele>1493.4000244141</ele>
        <time>2013-03-23T16:59:15.000Z</time>
      </trkpt>
      <trkpt lat="45.80649" lon="6.10141">
        <ele>1493.8000488281</ele>
        <time>2013-03-23T16:59:22.000Z</time>
      </trkpt>
      <trkpt lat="45.8065" lon="6.10147">
        <ele>1494</ele>
        <time>2013-03-23T16:59:27.000Z</time>
      </trkpt>
      <trkpt lat="45.80652" lon="6.10151">
        <ele>1494.1999511719</ele>
        <time>2013-03-23T16:59:31.000Z</time>
      </trkpt>
      <trkpt lat="45.80655" lon="6.10165">
        <ele>1494.4000244141</ele>
        <time>2013-03-23T16:59:42.000Z</time>
      </trkpt>
      <trkpt lat="45.80657" lon="6.10176">
        <ele>1495.1999511719</ele>
        <time>2013-03-23T16:59:50.000Z</time>
      </trkpt>
      <trkpt lat="45.80664" lon="6.10181">
        <ele>1495.8000488281</ele>
        <time>2013-03-23T16:59:55.000Z</time>
      </trkpt>
      <trkpt lat="45.80669" lon="6.10183">
        <ele>1496</ele>
        <time>2013-03-23T16:59:58.000Z</time>
      </trkpt>
      <trkpt lat="45.80679" lon="6.10184">
        <ele>1496.1999511719</ele>
        <time>2013-03-23T17:00:03.000Z</time>
      </trkpt>
      <trkpt lat="45.8069" lon="6.10182">
        <ele>1496.1999511719</ele>
        <time>2013-03-23T17:00:13.000Z</time>
      </trkpt>
      <trkpt lat="45.80696" lon="6.1018">
        <ele>1496.1999511719</ele>
        <time>2013-03-23T17:00:20.000Z</time>
      </trkpt>
      <trkpt lat="45.80696" lon="6.1018">
        <ele>1496.1999511719</ele>
        <time>2013-03-23T17:00:21.000Z</time>
      </trkpt>
      <trkpt lat="45.80706" lon="6.10181">
        <ele>1496.1999511719</ele>
        <time>2013-03-23T17:00:34.000Z</time>
      </trkpt>
      <trkpt lat="45.80706" lon="6.10186">
        <ele>1496.5999755859</ele>
        <time>2013-03-23T17:00:42.000Z</time>
      </trkpt>
      <trkpt lat="45.80705" lon="6.10197">
        <ele>1497.4000244141</ele>
        <time>2013-03-23T17:00:52.000Z</time>
      </trkpt>
      <trkpt lat="45.80705" lon="6.102">
        <ele>1497.5999755859</ele>
        <time>2013-03-23T17:00:56.000Z</time>
      </trkpt>
      <trkpt lat="45.80705" lon="6.10215">
        <ele>1498.5999755859</ele>
        <time>2013-03-23T17:01:08.000Z</time>
      </trkpt>
      <trkpt lat="45.8071" lon="6.10221">
        <ele>1499</ele>
        <time>2013-03-23T17:01:16.000Z</time>
      </trkpt>
      <trkpt lat="45.80718" lon="6.10228">
        <ele>1499.4000244141</ele>
        <time>2013-03-23T17:01:25.000Z</time>
      </trkpt>
      <trkpt lat="45.80722" lon="6.10232">
        <ele>1499.8000488281</ele>
        <time>2013-03-23T17:01:31.000Z</time>
      </trkpt>
      <trkpt lat="45.8073" lon="6.10235">
        <ele>1500</ele>
        <time>2013-03-23T17:01:39.000Z</time>
      </trkpt>
      <trkpt lat="45.80738" lon="6.10243">
        <ele>1500.4000244141</ele>
        <time>2013-03-23T17:01:47.000Z</time>
      </trkpt>
      <trkpt lat="45.80747" lon="6.10251">
        <ele>1501</ele>
        <time>2013-03-23T17:01:57.000Z</time>
      </trkpt>
      <trkpt lat="45.80749" lon="6.10253">
        <ele>1501.4000244141</ele>
        <time>2013-03-23T17:02:00.000Z</time>
      </trkpt>
      <trkpt lat="45.80754" lon="6.10259">
        <ele>1502.1999511719</ele>
        <time>2013-03-23T17:02:08.000Z</time>
      </trkpt>
      <trkpt lat="45.80764" lon="6.10263">
        <ele>1502.4000244141</ele>
        <time>2013-03-23T17:02:18.000Z</time>
      </trkpt>
      <trkpt lat="45.80771" lon="6.10265">
        <ele>1502.5999755859</ele>
        <time>2013-03-23T17:02:25.000Z</time>
      </trkpt>
      <trkpt lat="45.80781" lon="6.10268">
        <ele>1502.8000488281</ele>
        <time>2013-03-23T17:02:34.000Z</time>
      </trkpt>
      <trkpt lat="45.80788" lon="6.10272">
        <ele>1503</ele>
        <time>2013-03-23T17:02:41.000Z</time>
      </trkpt>
      <trkpt lat="45.80799" lon="6.10271">
        <ele>1502.8000488281</ele>
        <time>2013-03-23T17:02:50.000Z</time>
      </trkpt>
      <trkpt lat="45.80806" lon="6.10271">
        <ele>1502.5999755859</ele>
        <time>2013-03-23T17:02:58.000Z</time>
      </trkpt>
      <trkpt lat="45.80807" lon="6.10271">
        <ele>1502.5999755859</ele>
        <time>2013-03-23T17:02:59.000Z</time>
      </trkpt>
      <trkpt lat="45.80809" lon="6.10277">
        <ele>1503.1999511719</ele>
        <time>2013-03-23T17:03:07.000Z</time>
      </trkpt>
      <trkpt lat="45.80808" lon="6.10277">
        <ele>1503.1999511719</ele>
        <time>2013-03-23T17:04:28.000Z</time>
      </trkpt>
      <trkpt lat="45.80803" lon="6.10278">
        <ele>1503.4000244141</ele>
        <time>2013-03-23T17:04:35.000Z</time>
      </trkpt>
      <trkpt lat="45.808" lon="6.1028">
        <ele>1503.8000488281</ele>
        <time>2013-03-23T17:04:38.000Z</time>
      </trkpt>
      <trkpt lat="45.80792" lon="6.10286">
        <ele>1504.8000488281</ele>
        <time>2013-03-23T17:04:47.000Z</time>
      </trkpt>
      <trkpt lat="45.80789" lon="6.10289">
        <ele>1505.1999511719</ele>
        <time>2013-03-23T17:04:50.000Z</time>
      </trkpt>
      <trkpt lat="45.80782" lon="6.10294">
        <ele>1506</ele>
        <time>2013-03-23T17:04:56.000Z</time>
      </trkpt>
      <trkpt lat="45.80777" lon="6.10298">
        <ele>1506.8000488281</ele>
        <time>2013-03-23T17:05:01.000Z</time>
      </trkpt>
      <trkpt lat="45.80772" lon="6.10303">
        <ele>1507.5999755859</ele>
        <time>2013-03-23T17:05:06.000Z</time>
      </trkpt>
      <trkpt lat="45.80767" lon="6.10308">
        <ele>1508.4000244141</ele>
        <time>2013-03-23T17:05:12.000Z</time>
      </trkpt>
      <trkpt lat="45.80761" lon="6.10312">
        <ele>1509.4000244141</ele>
        <time>2013-03-23T17:05:18.000Z</time>
      </trkpt>
      <trkpt lat="45.80756" lon="6.10316">
        <ele>1510</ele>
        <time>2013-03-23T17:05:23.000Z</time>
      </trkpt>
      <trkpt lat="45.80756" lon="6.10316">
        <ele>1510.1999511719</ele>
        <time>2013-03-23T17:05:24.000Z</time>
      </trkpt>
      <trkpt lat="45.80748" lon="6.10322">
        <ele>1511.1999511719</ele>
        <time>2013-03-23T17:05:31.000Z</time>
      </trkpt>
      <trkpt lat="45.80744" lon="6.10326">
        <ele>1511.8000488281</ele>
        <time>2013-03-23T17:05:36.000Z</time>
      </trkpt>
      <trkpt lat="45.8074" lon="6.1033">
        <ele>1512.4000244141</ele>
        <time>2013-03-23T17:05:40.000Z</time>
      </trkpt>
      <trkpt lat="45.80735" lon="6.10337">
        <ele>1513.1999511719</ele>
        <time>2013-03-23T17:05:46.000Z</time>
      </trkpt>
      <trkpt lat="45.80734" lon="6.10338">
        <ele>1513.4000244141</ele>
        <time>2013-03-23T17:05:47.000Z</time>
      </trkpt>
      <trkpt lat="45.80731" lon="6.10344">
        <ele>1514</ele>
        <time>2013-03-23T17:05:52.000Z</time>
      </trkpt>
      <trkpt lat="45.80728" lon="6.10348">
        <ele>1514.4000244141</ele>
        <time>2013-03-23T17:05:56.000Z</time>
      </trkpt>
      <trkpt lat="45.80727" lon="6.1035">
        <ele>1514.8000488281</ele>
        <time>2013-03-23T17:05:58.000Z</time>
      </trkpt>
      <trkpt lat="45.80725" lon="6.10357">
        <ele>1515.4000244141</ele>
        <time>2013-03-23T17:06:03.000Z</time>
      </trkpt>
      <trkpt lat="45.80723" lon="6.10362">
        <ele>1516.1999511719</ele>
        <time>2013-03-23T17:06:08.000Z</time>
      </trkpt>
      <trkpt lat="45.80722" lon="6.10367">
        <ele>1516.5999755859</ele>
        <time>2013-03-23T17:06:12.000Z</time>
      </trkpt>
      <trkpt lat="45.80721" lon="6.10368">
        <ele>1516.8000488281</ele>
        <time>2013-03-23T17:06:13.000Z</time>
      </trkpt>
      <trkpt lat="45.80719" lon="6.10372">
        <ele>1517.4000244141</ele>
        <time>2013-03-23T17:06:18.000Z</time>
      </trkpt>
      <trkpt lat="45.80714" lon="6.10379">
        <ele>1518.4000244141</ele>
        <time>2013-03-23T17:06:25.000Z</time>
      </trkpt>
      <trkpt lat="45.80712" lon="6.10382">
        <ele>1518.8000488281</ele>
        <time>2013-03-23T17:06:28.000Z</time>
      </trkpt>
      <trkpt lat="45.8071" lon="6.10387">
        <ele>1519.5999755859</ele>
        <time>2013-03-23T17:06:33.000Z</time>
      </trkpt>
      <trkpt lat="45.80708" lon="6.10394">
        <ele>1520.5999755859</ele>
        <time>2013-03-23T17:06:39.000Z</time>
      </trkpt>
      <trkpt lat="45.80707" lon="6.10397">
        <ele>1521</ele>
        <time>2013-03-23T17:06:41.000Z</time>
      </trkpt>
      <trkpt lat="45.80705" lon="6.10404">
        <ele>1522</ele>
        <time>2013-03-23T17:06:47.000Z</time>
      </trkpt>
      <trkpt lat="45.80702" lon="6.10414">
        <ele>1523.5999755859</ele>
        <time>2013-03-23T17:06:53.000Z</time>
      </trkpt>
      <trkpt lat="45.80702" lon="6.10419">
        <ele>1524.1999511719</ele>
        <time>2013-03-23T17:06:56.000Z</time>
      </trkpt>
      <trkpt lat="45.80701" lon="6.10426">
        <ele>1525</ele>
        <time>2013-03-23T17:07:01.000Z</time>
      </trkpt>
      <trkpt lat="45.807" lon="6.10428">
        <ele>1525.1999511719</ele>
        <time>2013-03-23T17:07:02.000Z</time>
      </trkpt>
      <trkpt lat="45.807" lon="6.10432">
        <ele>1525.5999755859</ele>
        <time>2013-03-23T17:07:05.000Z</time>
      </trkpt>
      <trkpt lat="45.807" lon="6.1044">
        <ele>1526.4000244141</ele>
        <time>2013-03-23T17:07:11.000Z</time>
      </trkpt>
      <trkpt lat="45.807" lon="6.10445">
        <ele>1526.8000488281</ele>
        <time>2013-03-23T17:07:14.000Z</time>
      </trkpt>
      <trkpt lat="45.80699" lon="6.10452">
        <ele>1527.5999755859</ele>
        <time>2013-03-23T17:07:19.000Z</time>
      </trkpt>
      <trkpt lat="45.80698" lon="6.10458">
        <ele>1528.1999511719</ele>
        <time>2013-03-23T17:07:23.000Z</time>
      </trkpt>
      <trkpt lat="45.80697" lon="6.10465">
        <ele>1529</ele>
        <time>2013-03-23T17:07:28.000Z</time>
      </trkpt>
      <trkpt lat="45.80694" lon="6.10472">
        <ele>1530</ele>
        <time>2013-03-23T17:07:34.000Z</time>
      </trkpt>
      <trkpt lat="45.80692" lon="6.10475">
        <ele>1530.4000244141</ele>
        <time>2013-03-23T17:07:37.000Z</time>
      </trkpt>
      <trkpt lat="45.80689" lon="6.10484">
        <ele>1531.4000244141</ele>
        <time>2013-03-23T17:07:42.000Z</time>
      </trkpt>
      <trkpt lat="45.80687" lon="6.10496">
        <ele>1532.8000488281</ele>
        <time>2013-03-23T17:07:47.000Z</time>
      </trkpt>
      <trkpt lat="45.80686" lon="6.105">
        <ele>1533.1999511719</ele>
        <time>2013-03-23T17:07:50.000Z</time>
      </trkpt>
      <trkpt lat="45.80683" lon="6.10508">
        <ele>1534.4000244141</ele>
        <time>2013-03-23T17:07:56.000Z</time>
      </trkpt>
      <trkpt lat="45.80682" lon="6.1051">
        <ele>1534.8000488281</ele>
        <time>2013-03-23T17:07:58.000Z</time>
      </trkpt>
      <trkpt lat="45.80682" lon="6.10515">
        <ele>1535.4000244141</ele>
        <time>2013-03-23T17:08:03.000Z</time>
      </trkpt>
      <trkpt lat="45.80682" lon="6.10516">
        <ele>1535.5999755859</ele>
        <time>2013-03-23T17:08:04.000Z</time>
      </trkpt>
      <trkpt lat="45.80678" lon="6.10523">
        <ele>1536.8000488281</ele>
        <time>2013-03-23T17:08:12.000Z</time>
      </trkpt>
      <trkpt lat="45.80676" lon="6.10524">
        <ele>1537</ele>
        <time>2013-03-23T17:08:15.000Z</time>
      </trkpt>
      <trkpt lat="45.80672" lon="6.10525">
        <ele>1537.4000244141</ele>
        <time>2013-03-23T17:08:19.000Z</time>
      </trkpt>
      <trkpt lat="45.80672" lon="6.10525">
        <ele>1537.4000244141</ele>
        <time>2013-03-23T17:08:20.000Z</time>
      </trkpt>
      <trkpt lat="45.8067" lon="6.10525">
        <ele>1537.5999755859</ele>
        <time>2013-03-23T17:08:22.000Z</time>
      </trkpt>
      <trkpt lat="45.80667" lon="6.10526">
        <ele>1538</ele>
        <time>2013-03-23T17:08:26.000Z</time>
      </trkpt>
      <trkpt lat="45.80662" lon="6.10527">
        <ele>1539</ele>
        <time>2013-03-23T17:08:33.000Z</time>
      </trkpt>
      <trkpt lat="45.80658" lon="6.10527">
        <ele>1539.8000488281</ele>
        <time>2013-03-23T17:08:38.000Z</time>
      </trkpt>
      <trkpt lat="45.80656" lon="6.10529">
        <ele>1540.5999755859</ele>
        <time>2013-03-23T17:08:42.000Z</time>
      </trkpt>
      <trkpt lat="45.80653" lon="6.10533">
        <ele>1541.5999755859</ele>
        <time>2013-03-23T17:08:48.000Z</time>
      </trkpt>
      <trkpt lat="45.80652" lon="6.10539">
        <ele>1542.5999755859</ele>
        <time>2013-03-23T17:08:53.000Z</time>
      </trkpt>
      <trkpt lat="45.8065" lon="6.10542">
        <ele>1543.1999511719</ele>
        <time>2013-03-23T17:08:56.000Z</time>
      </trkpt>
      <trkpt lat="45.8065" lon="6.10544">
        <ele>1543.5999755859</ele>
        <time>2013-03-23T17:08:58.000Z</time>
      </trkpt>
      <trkpt lat="45.80646" lon="6.10549">
        <ele>1545</ele>
        <time>2013-03-23T17:09:05.000Z</time>
      </trkpt>
      <trkpt lat="45.80643" lon="6.10551">
        <ele>1545.8000488281</ele>
        <time>2013-03-23T17:09:09.000Z</time>
      </trkpt>
      <trkpt lat="45.80639" lon="6.10551">
        <ele>1546.8000488281</ele>
        <time>2013-03-23T17:09:15.000Z</time>
      </trkpt>
      <trkpt lat="45.80636" lon="6.10552">
        <ele>1547.4000244141</ele>
        <time>2013-03-23T17:09:19.000Z</time>
      </trkpt>
      <trkpt lat="45.80634" lon="6.10553">
        <ele>1548</ele>
        <time>2013-03-23T17:09:24.000Z</time>
      </trkpt>
      <trkpt lat="45.80631" lon="6.10555">
        <ele>1548.8000488281</ele>
        <time>2013-03-23T17:09:27.000Z</time>
      </trkpt>
      <trkpt lat="45.80629" lon="6.10558">
        <ele>1549.5999755859</ele>
        <time>2013-03-23T17:09:32.000Z</time>
      </trkpt>
      <trkpt lat="45.80626" lon="6.10561">
        <ele>1550.5999755859</ele>
        <time>2013-03-23T17:09:36.000Z</time>
      </trkpt>
      <trkpt lat="45.80625" lon="6.10566">
        <ele>1551.1999511719</ele>
        <time>2013-03-23T17:09:40.000Z</time>
      </trkpt>
      <trkpt lat="45.80622" lon="6.10572">
        <ele>1552.5999755859</ele>
        <time>2013-03-23T17:09:46.000Z</time>
      </trkpt>
      <trkpt lat="45.8062" lon="6.10579">
        <ele>1553.8000488281</ele>
        <time>2013-03-23T17:09:52.000Z</time>
      </trkpt>
      <trkpt lat="45.80618" lon="6.10582">
        <ele>1554.8000488281</ele>
        <time>2013-03-23T17:09:56.000Z</time>
      </trkpt>
      <trkpt lat="45.80614" lon="6.10585">
        <ele>1555.8000488281</ele>
        <time>2013-03-23T17:10:02.000Z</time>
      </trkpt>
      <trkpt lat="45.8061" lon="6.10582">
        <ele>1556.1999511719</ele>
        <time>2013-03-23T17:10:07.000Z</time>
      </trkpt>
      <trkpt lat="45.80608" lon="6.1058">
        <ele>1556.4000244141</ele>
        <time>2013-03-23T17:10:11.000Z</time>
      </trkpt>
      <trkpt lat="45.80606" lon="6.10578">
        <ele>1556.5999755859</ele>
        <time>2013-03-23T17:10:15.000Z</time>
      </trkpt>
      <trkpt lat="45.80604" lon="6.10575">
        <ele>1556.8000488281</ele>
        <time>2013-03-23T17:10:19.000Z</time>
      </trkpt>
      <trkpt lat="45.80601" lon="6.10573">
        <ele>1557</ele>
        <time>2013-03-23T17:10:25.000Z</time>
      </trkpt>
      <trkpt lat="45.80599" lon="6.10574">
        <ele>1557.5999755859</ele>
        <time>2013-03-23T17:10:29.000Z</time>
      </trkpt>
      <trkpt lat="45.80595" lon="6.10574">
        <ele>1558.4000244141</ele>
        <time>2013-03-23T17:10:33.000Z</time>
      </trkpt>
      <trkpt lat="45.80588" lon="6.10571">
        <ele>1559.5999755859</ele>
        <time>2013-03-23T17:10:39.000Z</time>
      </trkpt>
      <trkpt lat="45.80583" lon="6.10569">
        <ele>1560.4000244141</ele>
        <time>2013-03-23T17:10:44.000Z</time>
      </trkpt>
      <trkpt lat="45.80579" lon="6.1057">
        <ele>1561.4000244141</ele>
        <time>2013-03-23T17:10:48.000Z</time>
      </trkpt>
      <trkpt lat="45.80576" lon="6.10571">
        <ele>1562.1999511719</ele>
        <time>2013-03-23T17:10:52.000Z</time>
      </trkpt>
      <trkpt lat="45.80573" lon="6.1057">
        <ele>1562.8000488281</ele>
        <time>2013-03-23T17:10:55.000Z</time>
      </trkpt>
      <trkpt lat="45.8057" lon="6.10568">
        <ele>1563.4000244141</ele>
        <time>2013-03-23T17:11:00.000Z</time>
      </trkpt>
      <trkpt lat="45.80563" lon="6.10567">
        <ele>1564.8000488281</ele>
        <time>2013-03-23T17:11:07.000Z</time>
      </trkpt>
      <trkpt lat="45.80559" lon="6.10566">
        <ele>1565.8000488281</ele>
        <time>2013-03-23T17:11:12.000Z</time>
      </trkpt>
      <trkpt lat="45.80554" lon="6.10565">
        <ele>1566.8000488281</ele>
        <time>2013-03-23T17:11:17.000Z</time>
      </trkpt>
      <trkpt lat="45.80551" lon="6.10565">
        <ele>1567.5999755859</ele>
        <time>2013-03-23T17:11:21.000Z</time>
      </trkpt>
      <trkpt lat="45.80548" lon="6.10567">
        <ele>1568.4000244141</ele>
        <time>2013-03-23T17:11:25.000Z</time>
      </trkpt>
      <trkpt lat="45.80546" lon="6.10569">
        <ele>1569.4000244141</ele>
        <time>2013-03-23T17:11:30.000Z</time>
      </trkpt>
      <trkpt lat="45.80542" lon="6.10572">
        <ele>1570.8000488281</ele>
        <time>2013-03-23T17:11:36.000Z</time>
      </trkpt>
      <trkpt lat="45.80539" lon="6.10575">
        <ele>1572</ele>
        <time>2013-03-23T17:11:41.000Z</time>
      </trkpt>
      <trkpt lat="45.80535" lon="6.10576">
        <ele>1573.1999511719</ele>
        <time>2013-03-23T17:11:46.000Z</time>
      </trkpt>
      <trkpt lat="45.80533" lon="6.10575">
        <ele>1573.4000244141</ele>
        <time>2013-03-23T17:11:49.000Z</time>
      </trkpt>
      <trkpt lat="45.80527" lon="6.10573">
        <ele>1574.5999755859</ele>
        <time>2013-03-23T17:11:55.000Z</time>
      </trkpt>
      <trkpt lat="45.80524" lon="6.10574">
        <ele>1575.4000244141</ele>
        <time>2013-03-23T17:11:59.000Z</time>
      </trkpt>
      <trkpt lat="45.80523" lon="6.10577">
        <ele>1576</ele>
        <time>2013-03-23T17:12:02.000Z</time>
      </trkpt>
      <trkpt lat="45.8052" lon="6.10582">
        <ele>1577.5999755859</ele>
        <time>2013-03-23T17:12:08.000Z</time>
      </trkpt>
      <trkpt lat="45.80519" lon="6.10587">
        <ele>1578.1999511719</ele>
        <time>2013-03-23T17:12:13.000Z</time>
      </trkpt>
      <trkpt lat="45.80519" lon="6.10589">
        <ele>1578</ele>
        <time>2013-03-23T17:12:15.000Z</time>
      </trkpt>
      <trkpt lat="45.80519" lon="6.10598">
        <ele>1577.8000488281</ele>
        <time>2013-03-23T17:12:21.000Z</time>
      </trkpt>
      <trkpt lat="45.80519" lon="6.10605">
        <ele>1577.5999755859</ele>
        <time>2013-03-23T17:12:26.000Z</time>
      </trkpt>
      <trkpt lat="45.80521" lon="6.10612">
        <ele>1577.1999511719</ele>
        <time>2013-03-23T17:12:31.000Z</time>
      </trkpt>
      <trkpt lat="45.80523" lon="6.1062">
        <ele>1576.5999755859</ele>
        <time>2013-03-23T17:12:36.000Z</time>
      </trkpt>
      <trkpt lat="45.80523" lon="6.10625">
        <ele>1576.4000244141</ele>
        <time>2013-03-23T17:12:38.000Z</time>
      </trkpt>
      <trkpt lat="45.80523" lon="6.10637">
        <ele>1576.1999511719</ele>
        <time>2013-03-23T17:12:42.000Z</time>
      </trkpt>
      <trkpt lat="45.80523" lon="6.10645">
        <ele>1576.1999511719</ele>
        <time>2013-03-23T17:12:48.000Z</time>
      </trkpt>
      <trkpt lat="45.80525" lon="6.10656">
        <ele>1575.5999755859</ele>
        <time>2013-03-23T17:12:55.000Z</time>
      </trkpt>
      <trkpt lat="45.80525" lon="6.10672">
        <ele>1575.4000244141</ele>
        <time>2013-03-23T17:13:03.000Z</time>
      </trkpt>
      <trkpt lat="45.80522" lon="6.10687">
        <ele>1575.8000488281</ele>
        <time>2013-03-23T17:13:07.000Z</time>
      </trkpt>
      <trkpt lat="45.80522" lon="6.10692">
        <ele>1575.5999755859</ele>
        <time>2013-03-23T17:13:12.000Z</time>
      </trkpt>
      <trkpt lat="45.80522" lon="6.10693">
        <ele>1575.5999755859</ele>
        <time>2013-03-23T17:13:23.000Z</time>
      </trkpt>
      <trkpt lat="45.80521" lon="6.107">
        <ele>1575.8000488281</ele>
        <time>2013-03-23T17:13:30.000Z</time>
      </trkpt>
      <trkpt lat="45.8052" lon="6.10703">
        <ele>1575.8000488281</ele>
        <time>2013-03-23T17:13:32.000Z</time>
      </trkpt>
      <trkpt lat="45.80519" lon="6.1071">
        <ele>1575.5999755859</ele>
        <time>2013-03-23T17:13:38.000Z</time>
      </trkpt>
      <trkpt lat="45.80516" lon="6.10716">
        <ele>1576.1999511719</ele>
        <time>2013-03-23T17:13:45.000Z</time>
      </trkpt>
      <trkpt lat="45.80515" lon="6.10717">
        <ele>1576.1999511719</ele>
        <time>2013-03-23T17:13:46.000Z</time>
      </trkpt>
      <trkpt lat="45.80516" lon="6.10724">
        <ele>1576</ele>
        <time>2013-03-23T17:13:54.000Z</time>
      </trkpt>
      <trkpt lat="45.80516" lon="6.10726">
        <ele>1575.8000488281</ele>
        <time>2013-03-23T17:14:01.000Z</time>
      </trkpt>
      <trkpt lat="45.80516" lon="6.10729">
        <ele>1575.8000488281</ele>
        <time>2013-03-23T17:14:07.000Z</time>
      </trkpt>
      <trkpt lat="45.80517" lon="6.10728">
        <ele>1575.5999755859</ele>
        <time>2013-03-23T17:14:10.000Z</time>
      </trkpt>
      <trkpt lat="45.80524" lon="6.10732">
        <ele>1574.5999755859</ele>
        <time>2013-03-23T17:14:15.000Z</time>
      </trkpt>
      <trkpt lat="45.80522" lon="6.1074">
        <ele>1574.8000488281</ele>
        <time>2013-03-23T17:14:19.000Z</time>
      </trkpt>
      <trkpt lat="45.80522" lon="6.10742">
        <ele>1574.5999755859</ele>
        <time>2013-03-23T17:14:20.000Z</time>
      </trkpt>
      <trkpt lat="45.80524" lon="6.10748">
        <ele>1574.4000244141</ele>
        <time>2013-03-23T17:14:25.000Z</time>
      </trkpt>
      <trkpt lat="45.80526" lon="6.10752">
        <ele>1574.1999511719</ele>
        <time>2013-03-23T17:14:30.000Z</time>
      </trkpt>
      <trkpt lat="45.8053" lon="6.10757">
        <ele>1573.5999755859</ele>
        <time>2013-03-23T17:14:35.000Z</time>
      </trkpt>
      <trkpt lat="45.80536" lon="6.1076">
        <ele>1573.1999511719</ele>
        <time>2013-03-23T17:14:40.000Z</time>
      </trkpt>
      <trkpt lat="45.80539" lon="6.10761">
        <ele>1572.8000488281</ele>
        <time>2013-03-23T17:14:43.000Z</time>
      </trkpt>
      <trkpt lat="45.80544" lon="6.1077">
        <ele>1572.5999755859</ele>
        <time>2013-03-23T17:14:47.000Z</time>
      </trkpt>
      <trkpt lat="45.80542" lon="6.10781">
        <ele>1573</ele>
        <time>2013-03-23T17:14:50.000Z</time>
      </trkpt>
      <trkpt lat="45.80544" lon="6.10783">
        <ele>1572.8000488281</ele>
        <time>2013-03-23T17:14:54.000Z</time>
      </trkpt>
      <trkpt lat="45.80546" lon="6.10788">
        <ele>1572.5999755859</ele>
        <time>2013-03-23T17:15:00.000Z</time>
      </trkpt>
      <trkpt lat="45.80548" lon="6.1079">
        <ele>1572.5999755859</ele>
        <time>2013-03-23T17:15:04.000Z</time>
      </trkpt>
      <trkpt lat="45.80548" lon="6.10793">
        <ele>1572.5999755859</ele>
        <time>2013-03-23T17:15:11.000Z</time>
      </trkpt>
      <trkpt lat="45.80548" lon="6.10794">
        <ele>1572.8000488281</ele>
        <time>2013-03-23T17:15:18.000Z</time>
      </trkpt>
      <trkpt lat="45.80547" lon="6.10798">
        <ele>1572.8000488281</ele>
        <time>2013-03-23T17:15:32.000Z</time>
      </trkpt>
      <trkpt lat="45.80544" lon="6.10802">
        <ele>1573.1999511719</ele>
        <time>2013-03-23T17:15:39.000Z</time>
      </trkpt>
      <trkpt lat="45.80543" lon="6.10802">
        <ele>1573.1999511719</ele>
        <time>2013-03-23T17:15:42.000Z</time>
      </trkpt>
      <trkpt lat="45.80537" lon="6.10801">
        <ele>1573.5999755859</ele>
        <time>2013-03-23T17:15:47.000Z</time>
      </trkpt>
      <trkpt lat="45.80529" lon="6.10805">
        <ele>1574.1999511719</ele>
        <time>2013-03-23T17:15:53.000Z</time>
      </trkpt>
      <trkpt lat="45.80522" lon="6.10811">
        <ele>1574.8000488281</ele>
        <time>2013-03-23T17:15:57.000Z</time>
      </trkpt>
      <trkpt lat="45.80518" lon="6.10814">
        <ele>1575</ele>
        <time>2013-03-23T17:15:59.000Z</time>
      </trkpt>
      <trkpt lat="45.80511" lon="6.10818">
        <ele>1575.4000244141</ele>
        <time>2013-03-23T17:16:06.000Z</time>
      </trkpt>
      <trkpt lat="45.80509" lon="6.10819">
        <ele>1575.5999755859</ele>
        <time>2013-03-23T17:16:08.000Z</time>
      </trkpt>
      <trkpt lat="45.80505" lon="6.10823">
        <ele>1575.8000488281</ele>
        <time>2013-03-23T17:16:13.000Z</time>
      </trkpt>
      <trkpt lat="45.80504" lon="6.10824">
        <ele>1575.8000488281</ele>
        <time>2013-03-23T17:16:15.000Z</time>
      </trkpt>
      <trkpt lat="45.80502" lon="6.10827">
        <ele>1575.8000488281</ele>
        <time>2013-03-23T17:16:18.000Z</time>
      </trkpt>
      <trkpt lat="45.805" lon="6.1083">
        <ele>1576</ele>
        <time>2013-03-23T17:16:25.000Z</time>
      </trkpt>
      <trkpt lat="45.805" lon="6.1083">
        <ele>1576</ele>
        <time>2013-03-23T17:16:31.000Z</time>
      </trkpt>
      <trkpt lat="45.805" lon="6.10831">
        <ele>1576</ele>
        <time>2013-03-23T17:16:38.000Z</time>
      </trkpt>
      <trkpt lat="45.80498" lon="6.10831">
        <ele>1576.1999511719</ele>
        <time>2013-03-23T17:16:44.000Z</time>
      </trkpt>
      <trkpt lat="45.80498" lon="6.10832">
        <ele>1576.1999511719</ele>
        <time>2013-03-23T17:16:51.000Z</time>
      </trkpt>
      <trkpt lat="45.80498" lon="6.10832">
        <ele>1576.1999511719</ele>
        <time>2013-03-23T17:16:59.000Z</time>
      </trkpt>
      <trkpt lat="45.80499" lon="6.10832">
        <ele>1576.1999511719</ele>
        <time>2013-03-23T17:17:23.000Z</time>
      </trkpt>
      <trkpt lat="45.80498" lon="6.10834">
        <ele>1576.1999511719</ele>
        <time>2013-03-23T17:17:36.000Z</time>
      </trkpt>
      <trkpt lat="45.80495" lon="6.10837">
        <ele>1577</ele>
        <time>2013-03-23T17:18:24.000Z</time>
      </trkpt>
      <trkpt lat="45.80494" lon="6.10838">
        <ele>1577.1999511719</ele>
        <time>2013-03-23T17:18:25.000Z</time>
      </trkpt>
      <trkpt lat="45.80489" lon="6.10841">
        <ele>1578.1999511719</ele>
        <time>2013-03-23T17:18:31.000Z</time>
      </trkpt>
      <trkpt lat="45.80485" lon="6.10845">
        <ele>1579.1999511719</ele>
        <time>2013-03-23T17:18:36.000Z</time>
      </trkpt>
      <trkpt lat="45.80481" lon="6.10845">
        <ele>1579.5999755859</ele>
        <time>2013-03-23T17:18:39.000Z</time>
      </trkpt>
      <trkpt lat="45.80472" lon="6.10839">
        <ele>1580.1999511719</ele>
        <time>2013-03-23T17:18:45.000Z</time>
      </trkpt>
      <trkpt lat="45.80466" lon="6.10837">
        <ele>1580.5999755859</ele>
        <time>2013-03-23T17:18:50.000Z</time>
      </trkpt>
      <trkpt lat="45.80462" lon="6.10837">
        <ele>1581.1999511719</ele>
        <time>2013-03-23T17:18:55.000Z</time>
      </trkpt>
      <trkpt lat="45.8046" lon="6.1084">
        <ele>1581.8000488281</ele>
        <time>2013-03-23T17:19:01.000Z</time>
      </trkpt>
      <trkpt lat="45.80456" lon="6.1084">
        <ele>1582.1999511719</ele>
        <time>2013-03-23T17:19:06.000Z</time>
      </trkpt>
      <trkpt lat="45.80454" lon="6.1084">
        <ele>1582.5999755859</ele>
        <time>2013-03-23T17:19:09.000Z</time>
      </trkpt>
      <trkpt lat="45.80453" lon="6.10843">
        <ele>1582.8000488281</ele>
        <time>2013-03-23T17:19:13.000Z</time>
      </trkpt>
      <trkpt lat="45.8045" lon="6.10848">
        <ele>1583.5999755859</ele>
        <time>2013-03-23T17:19:19.000Z</time>
      </trkpt>
      <trkpt lat="45.80446" lon="6.1085">
        <ele>1584.1999511719</ele>
        <time>2013-03-23T17:19:25.000Z</time>
      </trkpt>
      <trkpt lat="45.8044" lon="6.10847">
        <ele>1584.8000488281</ele>
        <time>2013-03-23T17:19:31.000Z</time>
      </trkpt>
      <trkpt lat="45.80432" lon="6.10837">
        <ele>1585</ele>
        <time>2013-03-23T17:19:36.000Z</time>
      </trkpt>
      <trkpt lat="45.80424" lon="6.10827">
        <ele>1586.1999511719</ele>
        <time>2013-03-23T17:19:40.000Z</time>
      </trkpt>
      <trkpt lat="45.80421" lon="6.10825">
        <ele>1586.8000488281</ele>
        <time>2013-03-23T17:19:43.000Z</time>
      </trkpt>
      <trkpt lat="45.80419" lon="6.10822">
        <ele>1587.1999511719</ele>
        <time>2013-03-23T17:19:46.000Z</time>
      </trkpt>
      <trkpt lat="45.80418" lon="6.10817">
        <ele>1587.4000244141</ele>
        <time>2013-03-23T17:19:50.000Z</time>
      </trkpt>
      <trkpt lat="45.80417" lon="6.10814">
        <ele>1587.8000488281</ele>
        <time>2013-03-23T17:19:53.000Z</time>
      </trkpt>
      <trkpt lat="45.80411" lon="6.10809">
        <ele>1588.8000488281</ele>
        <time>2013-03-23T17:19:59.000Z</time>
      </trkpt>
      <trkpt lat="45.80407" lon="6.10804">
        <ele>1589.8000488281</ele>
        <time>2013-03-23T17:20:05.000Z</time>
      </trkpt>
      <trkpt lat="45.80405" lon="6.10801">
        <ele>1590.1999511719</ele>
        <time>2013-03-23T17:20:09.000Z</time>
      </trkpt>
      <trkpt lat="45.80402" lon="6.10799">
        <ele>1590.5999755859</ele>
        <time>2013-03-23T17:20:12.000Z</time>
      </trkpt>
      <trkpt lat="45.80398" lon="6.108">
        <ele>1591.1999511719</ele>
        <time>2013-03-23T17:20:17.000Z</time>
      </trkpt>
      <trkpt lat="45.80395" lon="6.10801">
        <ele>1591.5999755859</ele>
        <time>2013-03-23T17:20:21.000Z</time>
      </trkpt>
      <trkpt lat="45.80393" lon="6.10801">
        <ele>1591.8000488281</ele>
        <time>2013-03-23T17:20:27.000Z</time>
      </trkpt>
      <trkpt lat="45.8039" lon="6.10803">
        <ele>1592.1999511719</ele>
        <time>2013-03-23T17:20:32.000Z</time>
      </trkpt>
      <trkpt lat="45.80392" lon="6.10808">
        <ele>1591.8000488281</ele>
        <time>2013-03-23T17:20:37.000Z</time>
      </trkpt>
      <trkpt lat="45.80393" lon="6.10812">
        <ele>1591.4000244141</ele>
        <time>2013-03-23T17:20:41.000Z</time>
      </trkpt>
      <trkpt lat="45.80394" lon="6.10814">
        <ele>1591</ele>
        <time>2013-03-23T17:20:45.000Z</time>
      </trkpt>
      <trkpt lat="45.80395" lon="6.10816">
        <ele>1590.8000488281</ele>
        <time>2013-03-23T17:20:50.000Z</time>
      </trkpt>
      <trkpt lat="45.80394" lon="6.10821">
        <ele>1590.8000488281</ele>
        <time>2013-03-23T17:20:56.000Z</time>
      </trkpt>
      <trkpt lat="45.80392" lon="6.10822">
        <ele>1591</ele>
        <time>2013-03-23T17:21:02.000Z</time>
      </trkpt>
      <trkpt lat="45.80387" lon="6.1082">
        <ele>1591.8000488281</ele>
        <time>2013-03-23T17:21:08.000Z</time>
      </trkpt>
      <trkpt lat="45.80382" lon="6.10819">
        <ele>1592.5999755859</ele>
        <time>2013-03-23T17:21:12.000Z</time>
      </trkpt>
      <trkpt lat="45.8038" lon="6.1082">
        <ele>1592.8000488281</ele>
        <time>2013-03-23T17:21:14.000Z</time>
      </trkpt>
      <trkpt lat="45.80376" lon="6.10821">
        <ele>1593.4000244141</ele>
        <time>2013-03-23T17:21:19.000Z</time>
      </trkpt>
      <trkpt lat="45.80374" lon="6.10822">
        <ele>1593.5999755859</ele>
        <time>2013-03-23T17:21:22.000Z</time>
      </trkpt>
      <trkpt lat="45.8037" lon="6.10823">
        <ele>1594.1999511719</ele>
        <time>2013-03-23T17:21:29.000Z</time>
      </trkpt>
      <trkpt lat="45.80366" lon="6.10821">
        <ele>1594.8000488281</ele>
        <time>2013-03-23T17:21:35.000Z</time>
      </trkpt>
      <trkpt lat="45.80363" lon="6.10817">
        <ele>1595.4000244141</ele>
        <time>2013-03-23T17:21:39.000Z</time>
      </trkpt>
      <trkpt lat="45.80362" lon="6.10816">
        <ele>1595.5999755859</ele>
        <time>2013-03-23T17:21:41.000Z</time>
      </trkpt>
      <trkpt lat="45.80357" lon="6.10809">
        <ele>1596.5999755859</ele>
        <time>2013-03-23T17:21:48.000Z</time>
      </trkpt>
      <trkpt lat="45.80356" lon="6.10807">
        <ele>1596.8000488281</ele>
        <time>2013-03-23T17:21:50.000Z</time>
      </trkpt>
      <trkpt lat="45.80353" lon="6.10805">
        <ele>1597.4000244141</ele>
        <time>2013-03-23T17:21:54.000Z</time>
      </trkpt>
      <trkpt lat="45.8035" lon="6.10802">
        <ele>1598</ele>
        <time>2013-03-23T17:21:58.000Z</time>
      </trkpt>
      <trkpt lat="45.8035" lon="6.108">
        <ele>1598</ele>
        <time>2013-03-23T17:21:59.000Z</time>
      </trkpt>
      <trkpt lat="45.80351" lon="6.10795">
        <ele>1598.1999511719</ele>
        <time>2013-03-23T17:22:04.000Z</time>
      </trkpt>
      <trkpt lat="45.80352" lon="6.10791">
        <ele>1598.4000244141</ele>
        <time>2013-03-23T17:22:07.000Z</time>
      </trkpt>
      <trkpt lat="45.80352" lon="6.10789">
        <ele>1598.4000244141</ele>
        <time>2013-03-23T17:22:09.000Z</time>
      </trkpt>
      <trkpt lat="45.80354" lon="6.10782">
        <ele>1598.4000244141</ele>
        <time>2013-03-23T17:22:16.000Z</time>
      </trkpt>
      <trkpt lat="45.80354" lon="6.10779">
        <ele>1598.4000244141</ele>
        <time>2013-03-23T17:22:18.000Z</time>
      </trkpt>
      <trkpt lat="45.80352" lon="6.10769">
        <ele>1599.1999511719</ele>
        <time>2013-03-23T17:22:22.000Z</time>
      </trkpt>
      <trkpt lat="45.8035" lon="6.10762">
        <ele>1600</ele>
        <time>2013-03-23T17:22:27.000Z</time>
      </trkpt>
      <trkpt lat="45.80349" lon="6.10762">
        <ele>1600</ele>
        <time>2013-03-23T17:22:28.000Z</time>
      </trkpt>
      <trkpt lat="45.80346" lon="6.10764">
        <ele>1600.4000244141</ele>
        <time>2013-03-23T17:22:34.000Z</time>
      </trkpt>
      <trkpt lat="45.80342" lon="6.10768">
        <ele>1600.8000488281</ele>
        <time>2013-03-23T17:22:39.000Z</time>
      </trkpt>
      <trkpt lat="45.80341" lon="6.10768">
        <ele>1600.8000488281</ele>
        <time>2013-03-23T17:22:40.000Z</time>
      </trkpt>
      <trkpt lat="45.80339" lon="6.1077">
        <ele>1601.1999511719</ele>
        <time>2013-03-23T17:22:44.000Z</time>
      </trkpt>
      <trkpt lat="45.80336" lon="6.10775">
        <ele>1601.4000244141</ele>
        <time>2013-03-23T17:22:51.000Z</time>
      </trkpt>
      <trkpt lat="45.80332" lon="6.1078">
        <ele>1601.5999755859</ele>
        <time>2013-03-23T17:22:56.000Z</time>
      </trkpt>
      <trkpt lat="45.8033" lon="6.10782">
        <ele>1601.5999755859</ele>
        <time>2013-03-23T17:23:06.000Z</time>
      </trkpt>
      <trkpt lat="45.80329" lon="6.10783">
        <ele>1601.5999755859</ele>
        <time>2013-03-23T17:23:35.000Z</time>
      </trkpt>
      <trkpt lat="45.80323" lon="6.10785">
        <ele>1601.8000488281</ele>
        <time>2013-03-23T17:23:42.000Z</time>
      </trkpt>
      <trkpt lat="45.80321" lon="6.10786">
        <ele>1601.8000488281</ele>
        <time>2013-03-23T17:23:44.000Z</time>
      </trkpt>
      <trkpt lat="45.80316" lon="6.10788">
        <ele>1602</ele>
        <time>2013-03-23T17:23:49.000Z</time>
      </trkpt>
      <trkpt lat="45.80312" lon="6.10791">
        <ele>1602</ele>
        <time>2013-03-23T17:23:54.000Z</time>
      </trkpt>
      <trkpt lat="45.80308" lon="6.10793">
        <ele>1602.1999511719</ele>
        <time>2013-03-23T17:23:59.000Z</time>
      </trkpt>
      <trkpt lat="45.80303" lon="6.10796">
        <ele>1602.4000244141</ele>
        <time>2013-03-23T17:24:05.000Z</time>
      </trkpt>
      <trkpt lat="45.803" lon="6.10797">
        <ele>1602.4000244141</ele>
        <time>2013-03-23T17:24:09.000Z</time>
      </trkpt>
      <trkpt lat="45.80296" lon="6.10795">
        <ele>1602.8000488281</ele>
        <time>2013-03-23T17:24:14.000Z</time>
      </trkpt>
      <trkpt lat="45.80292" lon="6.1079">
        <ele>1603.1999511719</ele>
        <time>2013-03-23T17:24:21.000Z</time>
      </trkpt>
      <trkpt lat="45.80287" lon="6.10784">
        <ele>1603.8000488281</ele>
        <time>2013-03-23T17:24:28.000Z</time>
      </trkpt>
      <trkpt lat="45.80284" lon="6.1078">
        <ele>1604</ele>
        <time>2013-03-23T17:24:33.000Z</time>
      </trkpt>
      <trkpt lat="45.80281" lon="6.10777">
        <ele>1604.4000244141</ele>
        <time>2013-03-23T17:24:36.000Z</time>
      </trkpt>
      <trkpt lat="45.80278" lon="6.1077">
        <ele>1604.8000488281</ele>
        <time>2013-03-23T17:24:42.000Z</time>
      </trkpt>
      <trkpt lat="45.80276" lon="6.10765">
        <ele>1605</ele>
        <time>2013-03-23T17:24:48.000Z</time>
      </trkpt>
      <trkpt lat="45.80273" lon="6.10759">
        <ele>1605.4000244141</ele>
        <time>2013-03-23T17:24:55.000Z</time>
      </trkpt>
      <trkpt lat="45.80267" lon="6.10755">
        <ele>1605.8000488281</ele>
        <time>2013-03-23T17:25:19.000Z</time>
      </trkpt>
      <trkpt lat="45.80261" lon="6.10747">
        <ele>1606.4000244141</ele>
        <time>2013-03-23T17:25:25.000Z</time>
      </trkpt>
      <trkpt lat="45.80257" lon="6.10741">
        <ele>1606.5999755859</ele>
        <time>2013-03-23T17:25:29.000Z</time>
      </trkpt>
      <trkpt lat="45.80253" lon="6.10733">
        <ele>1607</ele>
        <time>2013-03-23T17:25:35.000Z</time>
      </trkpt>
      <trkpt lat="45.80251" lon="6.10729">
        <ele>1607.1999511719</ele>
        <time>2013-03-23T17:25:40.000Z</time>
      </trkpt>
      <trkpt lat="45.80251" lon="6.10721">
        <ele>1607.1999511719</ele>
        <time>2013-03-23T17:25:47.000Z</time>
      </trkpt>
      <trkpt lat="45.80251" lon="6.10715">
        <ele>1607.1999511719</ele>
        <time>2013-03-23T17:25:53.000Z</time>
      </trkpt>
      <trkpt lat="45.80251" lon="6.10712">
        <ele>1607.4000244141</ele>
        <time>2013-03-23T17:25:55.000Z</time>
      </trkpt>
      <trkpt lat="45.8025" lon="6.10704">
        <ele>1607.4000244141</ele>
        <time>2013-03-23T17:26:01.000Z</time>
      </trkpt>
      <trkpt lat="45.8025" lon="6.10703">
        <ele>1607.4000244141</ele>
        <time>2013-03-23T17:26:02.000Z</time>
      </trkpt>
      <trkpt lat="45.8025" lon="6.1069">
        <ele>1607.5999755859</ele>
        <time>2013-03-23T17:26:08.000Z</time>
      </trkpt>
      <trkpt lat="45.80252" lon="6.10679">
        <ele>1607.8000488281</ele>
        <time>2013-03-23T17:26:13.000Z</time>
      </trkpt>
      <trkpt lat="45.80252" lon="6.10677">
        <ele>1607.8000488281</ele>
        <time>2013-03-23T17:26:14.000Z</time>
      </trkpt>
      <trkpt lat="45.80258" lon="6.10668">
        <ele>1607.8000488281</ele>
        <time>2013-03-23T17:26:20.000Z</time>
      </trkpt>
      <trkpt lat="45.8026" lon="6.10666">
        <ele>1607.8000488281</ele>
        <time>2013-03-23T17:26:23.000Z</time>
      </trkpt>
      <trkpt lat="45.80263" lon="6.10663">
        <ele>1607.5999755859</ele>
        <time>2013-03-23T17:26:27.000Z</time>
      </trkpt>
      <trkpt lat="45.80265" lon="6.10659">
        <ele>1607.5999755859</ele>
        <time>2013-03-23T17:26:34.000Z</time>
      </trkpt>
      <trkpt lat="45.80266" lon="6.10657">
        <ele>1607.5999755859</ele>
        <time>2013-03-23T17:26:42.000Z</time>
      </trkpt>
      <trkpt lat="45.80265" lon="6.10649">
        <ele>1607.4000244141</ele>
        <time>2013-03-23T17:27:13.000Z</time>
      </trkpt>
      <trkpt lat="45.80267" lon="6.10646">
        <ele>1607.4000244141</ele>
        <time>2013-03-23T17:27:27.000Z</time>
      </trkpt>
      <trkpt lat="45.80269" lon="6.10642">
        <ele>1607.1999511719</ele>
        <time>2013-03-23T17:27:31.000Z</time>
      </trkpt>
      <trkpt lat="45.80268" lon="6.10622">
        <ele>1606.8000488281</ele>
        <time>2013-03-23T17:27:36.000Z</time>
      </trkpt>
      <trkpt lat="45.80265" lon="6.10608">
        <ele>1606.4000244141</ele>
        <time>2013-03-23T17:27:40.000Z</time>
      </trkpt>
      <trkpt lat="45.80264" lon="6.10606">
        <ele>1606.4000244141</ele>
        <time>2013-03-23T17:27:41.000Z</time>
      </trkpt>
      <trkpt lat="45.80268" lon="6.10607">
        <ele>1606.5999755859</ele>
        <time>2013-03-23T17:28:08.000Z</time>
      </trkpt>
      <trkpt lat="45.8027" lon="6.10612">
        <ele>1606.8000488281</ele>
        <time>2013-03-23T17:28:13.000Z</time>
      </trkpt>
      <trkpt lat="45.80272" lon="6.10617">
        <ele>1607</ele>
        <time>2013-03-23T17:28:19.000Z</time>
      </trkpt>
      <trkpt lat="45.80274" lon="6.10622">
        <ele>1607</ele>
        <time>2013-03-23T17:28:24.000Z</time>
      </trkpt>
      <trkpt lat="45.80275" lon="6.10625">
        <ele>1607.1999511719</ele>
        <time>2013-03-23T17:28:29.000Z</time>
      </trkpt>
      <trkpt lat="45.80275" lon="6.10628">
        <ele>1607.1999511719</ele>
        <time>2013-03-23T17:28:33.000Z</time>
      </trkpt>
      <trkpt lat="45.80275" lon="6.10634">
        <ele>1607.1999511719</ele>
        <time>2013-03-23T17:28:38.000Z</time>
      </trkpt>
      <trkpt lat="45.80277" lon="6.10639">
        <ele>1607.4000244141</ele>
        <time>2013-03-23T17:28:43.000Z</time>
      </trkpt>
      <trkpt lat="45.80274" lon="6.10643">
        <ele>1607.4000244141</ele>
        <time>2013-03-23T17:28:50.000Z</time>
      </trkpt>
      <trkpt lat="45.8027" lon="6.10648">
        <ele>1607.4000244141</ele>
        <time>2013-03-23T17:28:55.000Z</time>
      </trkpt>
      <trkpt lat="45.80264" lon="6.10653">
        <ele>1607.4000244141</ele>
        <time>2013-03-23T17:29:02.000Z</time>
      </trkpt>
      <trkpt lat="45.80261" lon="6.10655">
        <ele>1607.4000244141</ele>
        <time>2013-03-23T17:29:05.000Z</time>
      </trkpt>
      <trkpt lat="45.80256" lon="6.1066">
        <ele>1607.5999755859</ele>
        <time>2013-03-23T17:29:12.000Z</time>
      </trkpt>
      <trkpt lat="45.80252" lon="6.10668">
        <ele>1607.8000488281</ele>
        <time>2013-03-23T17:29:19.000Z</time>
      </trkpt>
      <trkpt lat="45.80252" lon="6.10676">
        <ele>1607.8000488281</ele>
        <time>2013-03-23T17:29:24.000Z</time>
      </trkpt>
      <trkpt lat="45.80251" lon="6.10684">
        <ele>1607.5999755859</ele>
        <time>2013-03-23T17:29:29.000Z</time>
      </trkpt>
      <trkpt lat="45.80251" lon="6.10694">
        <ele>1607.5999755859</ele>
        <time>2013-03-23T17:29:35.000Z</time>
      </trkpt>
      <trkpt lat="45.80252" lon="6.10696">
        <ele>1607.4000244141</ele>
        <time>2013-03-23T17:29:37.000Z</time>
      </trkpt>
      <trkpt lat="45.80253" lon="6.10704">
        <ele>1607.4000244141</ele>
        <time>2013-03-23T17:29:42.000Z</time>
      </trkpt>
      <trkpt lat="45.80253" lon="6.10713">
        <ele>1607.1999511719</ele>
        <time>2013-03-23T17:29:48.000Z</time>
      </trkpt>
      <trkpt lat="45.80252" lon="6.10727">
        <ele>1607</ele>
        <time>2013-03-23T17:29:56.000Z</time>
      </trkpt>
      <trkpt lat="45.80249" lon="6.10739">
        <ele>1607</ele>
        <time>2013-03-23T17:30:03.000Z</time>
      </trkpt>
      <trkpt lat="45.80248" lon="6.10742">
        <ele>1607</ele>
        <time>2013-03-23T17:30:05.000Z</time>
      </trkpt>
      <trkpt lat="45.80245" lon="6.10749">
        <ele>1606.8000488281</ele>
        <time>2013-03-23T17:30:10.000Z</time>
      </trkpt>
      <trkpt lat="45.80245" lon="6.1075">
        <ele>1606.8000488281</ele>
        <time>2013-03-23T17:30:11.000Z</time>
      </trkpt>
      <trkpt lat="45.80242" lon="6.10759">
        <ele>1606.4000244141</ele>
        <time>2013-03-23T17:30:17.000Z</time>
      </trkpt>
      <trkpt lat="45.80237" lon="6.10767">
        <ele>1606.4000244141</ele>
        <time>2013-03-23T17:30:24.000Z</time>
      </trkpt>
      <trkpt lat="45.80235" lon="6.10769">
        <ele>1606.4000244141</ele>
        <time>2013-03-23T17:30:30.000Z</time>
      </trkpt>
      <trkpt lat="45.8023" lon="6.10777">
        <ele>1606.1999511719</ele>
        <time>2013-03-23T17:34:28.000Z</time>
      </trkpt>
      <trkpt lat="45.80228" lon="6.10782">
        <ele>1606.4000244141</ele>
        <time>2013-03-23T17:34:44.000Z</time>
      </trkpt>
      <trkpt lat="45.80225" lon="6.10791">
        <ele>1606.4000244141</ele>
        <time>2013-03-23T17:34:51.000Z</time>
      </trkpt>
      <trkpt lat="45.80223" lon="6.10801">
        <ele>1606.5999755859</ele>
        <time>2013-03-23T17:34:58.000Z</time>
      </trkpt>
      <trkpt lat="45.80222" lon="6.10807">
        <ele>1606.5999755859</ele>
        <time>2013-03-23T17:35:01.000Z</time>
      </trkpt>
      <trkpt lat="45.80221" lon="6.10823">
        <ele>1607</ele>
        <time>2013-03-23T17:35:08.000Z</time>
      </trkpt>
      <trkpt lat="45.8022" lon="6.10828">
        <ele>1607</ele>
        <time>2013-03-23T17:35:13.000Z</time>
      </trkpt>
      <trkpt lat="45.8022" lon="6.10832">
        <ele>1607</ele>
        <time>2013-03-23T17:35:20.000Z</time>
      </trkpt>
      <trkpt lat="45.8022" lon="6.10832">
        <ele>1607.1999511719</ele>
        <time>2013-03-23T17:35:57.000Z</time>
      </trkpt>
      <trkpt lat="45.80218" lon="6.10832">
        <ele>1607.4000244141</ele>
        <time>2013-03-23T17:36:04.000Z</time>
      </trkpt>
      <trkpt lat="45.80213" lon="6.10835">
        <ele>1608</ele>
        <time>2013-03-23T17:36:09.000Z</time>
      </trkpt>
      <trkpt lat="45.80209" lon="6.10841">
        <ele>1609.1999511719</ele>
        <time>2013-03-23T17:36:15.000Z</time>
      </trkpt>
      <trkpt lat="45.80207" lon="6.10842">
        <ele>1609.5999755859</ele>
        <time>2013-03-23T17:36:19.000Z</time>
      </trkpt>
      <trkpt lat="45.80205" lon="6.10844">
        <ele>1610</ele>
        <time>2013-03-23T17:36:28.000Z</time>
      </trkpt>
      <trkpt lat="45.80206" lon="6.10844">
        <ele>1610</ele>
        <time>2013-03-23T17:36:34.000Z</time>
      </trkpt>
      <trkpt lat="45.80203" lon="6.10849">
        <ele>1611</ele>
        <time>2013-03-23T17:37:15.000Z</time>
      </trkpt>
      <trkpt lat="45.80198" lon="6.10856">
        <ele>1612.8000488281</ele>
        <time>2013-03-23T17:37:22.000Z</time>
      </trkpt>
      <trkpt lat="45.80195" lon="6.10862">
        <ele>1614</ele>
        <time>2013-03-23T17:37:27.000Z</time>
      </trkpt>
      <trkpt lat="45.80191" lon="6.10869">
        <ele>1616</ele>
        <time>2013-03-23T17:37:33.000Z</time>
      </trkpt>
      <trkpt lat="45.80187" lon="6.10873">
        <ele>1617.5999755859</ele>
        <time>2013-03-23T17:37:39.000Z</time>
      </trkpt>
      <trkpt lat="45.80182" lon="6.10873">
        <ele>1618.5999755859</ele>
        <time>2013-03-23T17:37:45.000Z</time>
      </trkpt>
      <trkpt lat="45.80179" lon="6.10871">
        <ele>1619</ele>
        <time>2013-03-23T17:37:48.000Z</time>
      </trkpt>
      <trkpt lat="45.80178" lon="6.10871">
        <ele>1619</ele>
        <time>2013-03-23T17:37:49.000Z</time>
      </trkpt>
      <trkpt lat="45.80172" lon="6.10866">
        <ele>1619.4000244141</ele>
        <time>2013-03-23T17:37:57.000Z</time>
      </trkpt>
      <trkpt lat="45.80167" lon="6.10864">
        <ele>1619.8000488281</ele>
        <time>2013-03-23T17:38:03.000Z</time>
      </trkpt>
      <trkpt lat="45.8016" lon="6.10861">
        <ele>1620.8000488281</ele>
        <time>2013-03-23T17:38:10.000Z</time>
      </trkpt>
      <trkpt lat="45.80159" lon="6.1086">
        <ele>1621</ele>
        <time>2013-03-23T17:38:12.000Z</time>
      </trkpt>
      <trkpt lat="45.80154" lon="6.10858">
        <ele>1622</ele>
        <time>2013-03-23T17:38:19.000Z</time>
      </trkpt>
      <trkpt lat="45.80148" lon="6.10854">
        <ele>1622.5999755859</ele>
        <time>2013-03-23T17:38:26.000Z</time>
      </trkpt>
      <trkpt lat="45.80148" lon="6.10853">
        <ele>1622.5999755859</ele>
        <time>2013-03-23T17:38:27.000Z</time>
      </trkpt>
      <trkpt lat="45.80143" lon="6.10847">
        <ele>1622.8000488281</ele>
        <time>2013-03-23T17:38:34.000Z</time>
      </trkpt>
      <trkpt lat="45.80142" lon="6.10846">
        <ele>1622.8000488281</ele>
        <time>2013-03-23T17:38:35.000Z</time>
      </trkpt>
      <trkpt lat="45.80137" lon="6.10838">
        <ele>1622.8000488281</ele>
        <time>2013-03-23T17:38:41.000Z</time>
      </trkpt>
      <trkpt lat="45.80131" lon="6.10833">
        <ele>1623.4000244141</ele>
        <time>2013-03-23T17:38:48.000Z</time>
      </trkpt>
      <trkpt lat="45.80129" lon="6.10833">
        <ele>1624</ele>
        <time>2013-03-23T17:38:50.000Z</time>
      </trkpt>
      <trkpt lat="45.80126" lon="6.10833">
        <ele>1625</ele>
        <time>2013-03-23T17:38:54.000Z</time>
      </trkpt>
      <trkpt lat="45.80122" lon="6.10832">
        <ele>1626.1999511719</ele>
        <time>2013-03-23T17:38:58.000Z</time>
      </trkpt>
      <trkpt lat="45.80117" lon="6.10831">
        <ele>1627.4000244141</ele>
        <time>2013-03-23T17:39:03.000Z</time>
      </trkpt>
      <trkpt lat="45.8011" lon="6.1083">
        <ele>1629</ele>
        <time>2013-03-23T17:39:10.000Z</time>
      </trkpt>
      <trkpt lat="45.80106" lon="6.1083">
        <ele>1630.1999511719</ele>
        <time>2013-03-23T17:39:15.000Z</time>
      </trkpt>
      <trkpt lat="45.801" lon="6.10829">
        <ele>1631.8000488281</ele>
        <time>2013-03-23T17:39:21.000Z</time>
      </trkpt>
      <trkpt lat="45.80097" lon="6.1083">
        <ele>1633</ele>
        <time>2013-03-23T17:39:26.000Z</time>
      </trkpt>
      <trkpt lat="45.80092" lon="6.10831">
        <ele>1634.5999755859</ele>
        <time>2013-03-23T17:39:31.000Z</time>
      </trkpt>
      <trkpt lat="45.80088" lon="6.1083">
        <ele>1635.4000244141</ele>
        <time>2013-03-23T17:39:35.000Z</time>
      </trkpt>
      <trkpt lat="45.80087" lon="6.1083">
        <ele>1635.8000488281</ele>
        <time>2013-03-23T17:39:36.000Z</time>
      </trkpt>
      <trkpt lat="45.80083" lon="6.10829">
        <ele>1636.5999755859</ele>
        <time>2013-03-23T17:39:40.000Z</time>
      </trkpt>
      <trkpt lat="45.80077" lon="6.10828">
        <ele>1637.4000244141</ele>
        <time>2013-03-23T17:39:47.000Z</time>
      </trkpt>
      <trkpt lat="45.80072" lon="6.10826">
        <ele>1638</ele>
        <time>2013-03-23T17:39:52.000Z</time>
      </trkpt>
      <trkpt lat="45.80068" lon="6.10825">
        <ele>1638.4000244141</ele>
        <time>2013-03-23T17:39:56.000Z</time>
      </trkpt>
      <trkpt lat="45.80065" lon="6.10823">
        <ele>1638.5999755859</ele>
        <time>2013-03-23T17:40:00.000Z</time>
      </trkpt>
      <trkpt lat="45.80061" lon="6.1082">
        <ele>1638.4000244141</ele>
        <time>2013-03-23T17:40:05.000Z</time>
      </trkpt>
      <trkpt lat="45.80058" lon="6.10817">
        <ele>1638.1999511719</ele>
        <time>2013-03-23T17:40:13.000Z</time>
      </trkpt>
      <trkpt lat="45.80058" lon="6.10818">
        <ele>1638.4000244141</ele>
        <time>2013-03-23T17:41:13.000Z</time>
      </trkpt>
      <trkpt lat="45.80058" lon="6.10821">
        <ele>1639.1999511719</ele>
        <time>2013-03-23T17:41:41.000Z</time>
      </trkpt>
      <trkpt lat="45.80058" lon="6.10821">
        <ele>1639.1999511719</ele>
        <time>2013-03-23T17:41:51.000Z</time>
      </trkpt>
      <trkpt lat="45.80059" lon="6.1082">
        <ele>1638.5999755859</ele>
        <time>2013-03-23T17:41:56.000Z</time>
      </trkpt>
      <trkpt lat="45.80059" lon="6.10819">
        <ele>1638.4000244141</ele>
        <time>2013-03-23T17:42:27.000Z</time>
      </trkpt>
      <trkpt lat="45.8006" lon="6.10819">
        <ele>1638.1999511719</ele>
        <time>2013-03-23T17:43:06.000Z</time>
      </trkpt>
      <trkpt lat="45.8006" lon="6.10821">
        <ele>1639</ele>
        <time>2013-03-23T17:43:11.000Z</time>
      </trkpt>
      <trkpt lat="45.80061" lon="6.10818">
        <ele>1638</ele>
        <time>2013-03-23T17:43:36.000Z</time>
      </trkpt>
      <trkpt lat="45.8006" lon="6.10815">
        <ele>1637.1999511719</ele>
        <time>2013-03-23T17:43:58.000Z</time>
      </trkpt>
      <trkpt lat="45.8006" lon="6.10815">
        <ele>1637</ele>
        <time>2013-03-23T17:44:08.000Z</time>
      </trkpt>
      <trkpt lat="45.8006" lon="6.10805">
        <ele>1634.1999511719</ele>
        <time>2013-03-23T17:44:13.000Z</time>
      </trkpt>
      <trkpt lat="45.80061" lon="6.10802">
        <ele>1633.1999511719</ele>
        <time>2013-03-23T17:44:15.000Z</time>
      </trkpt>
      <trkpt lat="45.80062" lon="6.10801">
        <ele>1632.4000244141</ele>
        <time>2013-03-23T17:44:22.000Z</time>
      </trkpt>
      <trkpt lat="45.80063" lon="6.108">
        <ele>1632</ele>
        <time>2013-03-23T17:44:33.000Z</time>
      </trkpt>
      <trkpt lat="45.80064" lon="6.108">
        <ele>1631.8000488281</ele>
        <time>2013-03-23T17:44:48.000Z</time>
      </trkpt>
      <trkpt lat="45.80069" lon="6.10803">
        <ele>1631.5999755859</ele>
        <time>2013-03-23T17:44:52.000Z</time>
      </trkpt>
      <trkpt lat="45.80068" lon="6.10801">
        <ele>1631</ele>
        <time>2013-03-23T17:44:56.000Z</time>
      </trkpt>
      <trkpt lat="45.80077" lon="6.10795">
        <ele>1627.1999511719</ele>
        <time>2013-03-23T17:45:00.000Z</time>
      </trkpt>
      <trkpt lat="45.80076" lon="6.10793">
        <ele>1626.8000488281</ele>
        <time>2013-03-23T17:45:42.000Z</time>
      </trkpt>
      <trkpt lat="45.80074" lon="6.10788">
        <ele>1625.8000488281</ele>
        <time>2013-03-23T17:45:48.000Z</time>
      </trkpt>
      <trkpt lat="45.80073" lon="6.10787">
        <ele>1625.5999755859</ele>
        <time>2013-03-23T17:45:49.000Z</time>
      </trkpt>
      <trkpt lat="45.80077" lon="6.10781">
        <ele>1622.8000488281</ele>
        <time>2013-03-23T17:45:52.000Z</time>
      </trkpt>
      <trkpt lat="45.8008" lon="6.1078">
        <ele>1621.5999755859</ele>
        <time>2013-03-23T17:45:56.000Z</time>
      </trkpt>
      <trkpt lat="45.8008" lon="6.10779">
        <ele>1621</ele>
        <time>2013-03-23T17:46:04.000Z</time>
      </trkpt>
      <trkpt lat="45.80089" lon="6.10772">
        <ele>1617.4000244141</ele>
        <time>2013-03-23T17:46:08.000Z</time>
      </trkpt>
      <trkpt lat="45.80091" lon="6.10772">
        <ele>1617.1999511719</ele>
        <time>2013-03-23T17:46:11.000Z</time>
      </trkpt>
      <trkpt lat="45.80091" lon="6.1077">
        <ele>1616.4000244141</ele>
        <time>2013-03-23T17:46:15.000Z</time>
      </trkpt>
      <trkpt lat="45.80091" lon="6.10768">
        <ele>1615.8000488281</ele>
        <time>2013-03-23T17:46:23.000Z</time>
      </trkpt>
      <trkpt lat="45.80088" lon="6.10766">
        <ele>1615.8000488281</ele>
        <time>2013-03-23T17:46:27.000Z</time>
      </trkpt>
      <trkpt lat="45.80076" lon="6.10755">
        <ele>1614.8000488281</ele>
        <time>2013-03-23T17:46:32.000Z</time>
      </trkpt>
      <trkpt lat="45.80065" lon="6.10743">
        <ele>1614.8000488281</ele>
        <time>2013-03-23T17:46:36.000Z</time>
      </trkpt>
      <trkpt lat="45.80056" lon="6.10732">
        <ele>1614.4000244141</ele>
        <time>2013-03-23T17:46:39.000Z</time>
      </trkpt>
      <trkpt lat="45.80053" lon="6.10722">
        <ele>1612.1999511719</ele>
        <time>2013-03-23T17:46:41.000Z</time>
      </trkpt>
      <trkpt lat="45.80049" lon="6.10714">
        <ele>1611</ele>
        <time>2013-03-23T17:46:43.000Z</time>
      </trkpt>
      <trkpt lat="45.80044" lon="6.10706">
        <ele>1610</ele>
        <time>2013-03-23T17:46:47.000Z</time>
      </trkpt>
      <trkpt lat="45.80019" lon="6.10683">
        <ele>1607.5999755859</ele>
        <time>2013-03-23T17:46:53.000Z</time>
      </trkpt>
      <trkpt lat="45.80008" lon="6.10673">
        <ele>1605.8000488281</ele>
        <time>2013-03-23T17:46:56.000Z</time>
      </trkpt>
      <trkpt lat="45.80003" lon="6.10666">
        <ele>1604.4000244141</ele>
        <time>2013-03-23T17:46:58.000Z</time>
      </trkpt>
      <trkpt lat="45.79989" lon="6.10636">
        <ele>1600.5999755859</ele>
        <time>2013-03-23T17:47:03.000Z</time>
      </trkpt>
      <trkpt lat="45.79977" lon="6.10605">
        <ele>1595.8000488281</ele>
        <time>2013-03-23T17:47:08.000Z</time>
      </trkpt>
      <trkpt lat="45.79975" lon="6.10601">
        <ele>1595.5999755859</ele>
        <time>2013-03-23T17:47:13.000Z</time>
      </trkpt>
      <trkpt lat="45.79975" lon="6.10601">
        <ele>1595.8000488281</ele>
        <time>2013-03-23T17:47:34.000Z</time>
      </trkpt>
      <trkpt lat="45.79975" lon="6.10602">
        <ele>1595.8000488281</ele>
        <time>2013-03-23T17:47:43.000Z</time>
      </trkpt>
      <trkpt lat="45.79975" lon="6.10601">
        <ele>1595.5999755859</ele>
        <time>2013-03-23T17:47:46.000Z</time>
      </trkpt>
      <trkpt lat="45.79974" lon="6.10601">
        <ele>1596.1999511719</ele>
        <time>2013-03-23T17:47:59.000Z</time>
      </trkpt>
      <trkpt lat="45.79972" lon="6.10602">
        <ele>1597.5999755859</ele>
        <time>2013-03-23T17:49:21.000Z</time>
      </trkpt>
      <trkpt lat="45.79972" lon="6.10602">
        <ele>1597.4000244141</ele>
        <time>2013-03-23T17:49:43.000Z</time>
      </trkpt>
      <trkpt lat="45.79972" lon="6.10601">
        <ele>1597</ele>
        <time>2013-03-23T17:49:56.000Z</time>
      </trkpt>
      <trkpt lat="45.79971" lon="6.106">
        <ele>1597.1999511719</ele>
        <time>2013-03-23T17:50:32.000Z</time>
      </trkpt>
      <trkpt lat="45.79971" lon="6.10598">
        <ele>1596.8000488281</ele>
        <time>2013-03-23T17:50:37.000Z</time>
      </trkpt>
      <trkpt lat="45.79971" lon="6.106">
        <ele>1597.1999511719</ele>
        <time>2013-03-23T17:50:46.000Z</time>
      </trkpt>
      <trkpt lat="45.79967" lon="6.10596">
        <ele>1597.5999755859</ele>
        <time>2013-03-23T17:50:51.000Z</time>
      </trkpt>
      <trkpt lat="45.79962" lon="6.10591">
        <ele>1598.4000244141</ele>
        <time>2013-03-23T17:50:58.000Z</time>
      </trkpt>
      <trkpt lat="45.7996" lon="6.10589">
        <ele>1598.5999755859</ele>
        <time>2013-03-23T17:51:01.000Z</time>
      </trkpt>
      <trkpt lat="45.79957" lon="6.10587">
        <ele>1599.1999511719</ele>
        <time>2013-03-23T17:51:09.000Z</time>
      </trkpt>
      <trkpt lat="45.79951" lon="6.10583">
        <ele>1600.5999755859</ele>
        <time>2013-03-23T17:51:20.000Z</time>
      </trkpt>
      <trkpt lat="45.79947" lon="6.10581">
        <ele>1601.4000244141</ele>
        <time>2013-03-23T17:51:26.000Z</time>
      </trkpt>
      <trkpt lat="45.79943" lon="6.10577">
        <ele>1602.5999755859</ele>
        <time>2013-03-23T17:51:33.000Z</time>
      </trkpt>
      <trkpt lat="45.79938" lon="6.10573">
        <ele>1603.4000244141</ele>
        <time>2013-03-23T17:51:39.000Z</time>
      </trkpt>
      <trkpt lat="45.79935" lon="6.10567">
        <ele>1603</ele>
        <time>2013-03-23T17:51:45.000Z</time>
      </trkpt>
      <trkpt lat="45.79934" lon="6.10563">
        <ele>1602.5999755859</ele>
        <time>2013-03-23T17:51:49.000Z</time>
      </trkpt>
      <trkpt lat="45.79932" lon="6.10557">
        <ele>1602.1999511719</ele>
        <time>2013-03-23T17:51:55.000Z</time>
      </trkpt>
      <trkpt lat="45.79929" lon="6.10553">
        <ele>1602.1999511719</ele>
        <time>2013-03-23T17:52:00.000Z</time>
      </trkpt>
      <trkpt lat="45.79925" lon="6.10548">
        <ele>1602.4000244141</ele>
        <time>2013-03-23T17:52:06.000Z</time>
      </trkpt>
      <trkpt lat="45.79922" lon="6.10544">
        <ele>1602.8000488281</ele>
        <time>2013-03-23T17:52:12.000Z</time>
      </trkpt>
      <trkpt lat="45.79918" lon="6.10542">
        <ele>1603.5999755859</ele>
        <time>2013-03-23T17:52:18.000Z</time>
      </trkpt>
      <trkpt lat="45.79913" lon="6.10539">
        <ele>1605.1999511719</ele>
        <time>2013-03-23T17:52:25.000Z</time>
      </trkpt>
      <trkpt lat="45.79909" lon="6.10536">
        <ele>1606.4000244141</ele>
        <time>2013-03-23T17:52:31.000Z</time>
      </trkpt>
      <trkpt lat="45.79903" lon="6.10532">
        <ele>1608.4000244141</ele>
        <time>2013-03-23T17:52:38.000Z</time>
      </trkpt>
      <trkpt lat="45.79902" lon="6.10531">
        <ele>1608.8000488281</ele>
        <time>2013-03-23T17:52:40.000Z</time>
      </trkpt>
      <trkpt lat="45.79898" lon="6.10527">
        <ele>1609.5999755859</ele>
        <time>2013-03-23T17:52:46.000Z</time>
      </trkpt>
      <trkpt lat="45.79897" lon="6.10526">
        <ele>1609.5999755859</ele>
        <time>2013-03-23T17:52:47.000Z</time>
      </trkpt>
      <trkpt lat="45.79894" lon="6.10523">
        <ele>1610.8000488281</ele>
        <time>2013-03-23T17:52:52.000Z</time>
      </trkpt>
      <trkpt lat="45.7989" lon="6.1052">
        <ele>1611.8000488281</ele>
        <time>2013-03-23T17:52:58.000Z</time>
      </trkpt>
      <trkpt lat="45.79887" lon="6.10517">
        <ele>1612.4000244141</ele>
        <time>2013-03-23T17:53:03.000Z</time>
      </trkpt>
      <trkpt lat="45.79885" lon="6.10514">
        <ele>1613</ele>
        <time>2013-03-23T17:53:07.000Z</time>
      </trkpt>
      <trkpt lat="45.79882" lon="6.1051">
        <ele>1613.4000244141</ele>
        <time>2013-03-23T17:53:13.000Z</time>
      </trkpt>
      <trkpt lat="45.7988" lon="6.10508">
        <ele>1613.8000488281</ele>
        <time>2013-03-23T17:53:19.000Z</time>
      </trkpt>
      <trkpt lat="45.7988" lon="6.10509">
        <ele>1614.1999511719</ele>
        <time>2013-03-23T17:53:27.000Z</time>
      </trkpt>
      <trkpt lat="45.79879" lon="6.10512">
        <ele>1615.8000488281</ele>
        <time>2013-03-23T17:53:34.000Z</time>
      </trkpt>
      <trkpt lat="45.79878" lon="6.10517">
        <ele>1617.4000244141</ele>
        <time>2013-03-23T17:53:39.000Z</time>
      </trkpt>
      <trkpt lat="45.79877" lon="6.10519">
        <ele>1618.1999511719</ele>
        <time>2013-03-23T17:53:44.000Z</time>
      </trkpt>
      <trkpt lat="45.79878" lon="6.10524">
        <ele>1619.4000244141</ele>
        <time>2013-03-23T17:54:04.000Z</time>
      </trkpt>
      <trkpt lat="45.79878" lon="6.10529">
        <ele>1620.4000244141</ele>
        <time>2013-03-23T17:54:08.000Z</time>
      </trkpt>
      <trkpt lat="45.79878" lon="6.10533">
        <ele>1621.5999755859</ele>
        <time>2013-03-23T17:54:12.000Z</time>
      </trkpt>
      <trkpt lat="45.79878" lon="6.10537">
        <ele>1622.4000244141</ele>
        <time>2013-03-23T17:54:16.000Z</time>
      </trkpt>
      <trkpt lat="45.79879" lon="6.10545">
        <ele>1623.8000488281</ele>
        <time>2013-03-23T17:54:23.000Z</time>
      </trkpt>
      <trkpt lat="45.7988" lon="6.10549">
        <ele>1624.5999755859</ele>
        <time>2013-03-23T17:54:27.000Z</time>
      </trkpt>
      <trkpt lat="45.7988" lon="6.10555">
        <ele>1626</ele>
        <time>2013-03-23T17:54:34.000Z</time>
      </trkpt>
      <trkpt lat="45.7988" lon="6.10559">
        <ele>1627</ele>
        <time>2013-03-23T17:54:38.000Z</time>
      </trkpt>
      <trkpt lat="45.79881" lon="6.10561">
        <ele>1627.1999511719</ele>
        <time>2013-03-23T17:54:43.000Z</time>
      </trkpt>
      <trkpt lat="45.79883" lon="6.10561">
        <ele>1626</ele>
        <time>2013-03-23T17:55:05.000Z</time>
      </trkpt>
      <trkpt lat="45.79883" lon="6.10561">
        <ele>1626</ele>
        <time>2013-03-23T17:55:15.000Z</time>
      </trkpt>
      <trkpt lat="45.79882" lon="6.1056">
        <ele>1626.4000244141</ele>
        <time>2013-03-23T17:55:26.000Z</time>
      </trkpt>
      <trkpt lat="45.79878" lon="6.10556">
        <ele>1627.4000244141</ele>
        <time>2013-03-23T17:55:38.000Z</time>
      </trkpt>
      <trkpt lat="45.79875" lon="6.10554">
        <ele>1628.5999755859</ele>
        <time>2013-03-23T17:55:44.000Z</time>
      </trkpt>
      <trkpt lat="45.79873" lon="6.10554">
        <ele>1629.1999511719</ele>
        <time>2013-03-23T17:55:49.000Z</time>
      </trkpt>
      <trkpt lat="45.79871" lon="6.10553">
        <ele>1630.1999511719</ele>
        <time>2013-03-23T17:56:04.000Z</time>
      </trkpt>
      <trkpt lat="45.79869" lon="6.10551">
        <ele>1630.8000488281</ele>
        <time>2013-03-23T17:56:11.000Z</time>
      </trkpt>
      <trkpt lat="45.79867" lon="6.10551">
        <ele>1631.4000244141</ele>
        <time>2013-03-23T17:56:41.000Z</time>
      </trkpt>
      <trkpt lat="45.79863" lon="6.10548">
        <ele>1633</ele>
        <time>2013-03-23T17:56:46.000Z</time>
      </trkpt>
      <trkpt lat="45.7986" lon="6.10546">
        <ele>1633.8000488281</ele>
        <time>2013-03-23T17:56:50.000Z</time>
      </trkpt>
      <trkpt lat="45.79858" lon="6.10545">
        <ele>1634.8000488281</ele>
        <time>2013-03-23T17:56:58.000Z</time>
      </trkpt>
      <trkpt lat="45.79857" lon="6.10544">
        <ele>1635.1999511719</ele>
        <time>2013-03-23T17:57:04.000Z</time>
      </trkpt>
      <trkpt lat="45.79854" lon="6.10543">
        <ele>1636.1999511719</ele>
        <time>2013-03-23T17:57:08.000Z</time>
      </trkpt>
      <trkpt lat="45.79851" lon="6.10541">
        <ele>1637</ele>
        <time>2013-03-23T17:57:12.000Z</time>
      </trkpt>
      <trkpt lat="45.79849" lon="6.10539">
        <ele>1637.8000488281</ele>
        <time>2013-03-23T17:57:16.000Z</time>
      </trkpt>
      <trkpt lat="45.79845" lon="6.10536">
        <ele>1639</ele>
        <time>2013-03-23T17:57:22.000Z</time>
      </trkpt>
      <trkpt lat="45.79843" lon="6.10533">
        <ele>1639.4000244141</ele>
        <time>2013-03-23T17:57:27.000Z</time>
      </trkpt>
      <trkpt lat="45.7984" lon="6.10529">
        <ele>1640</ele>
        <time>2013-03-23T17:57:34.000Z</time>
      </trkpt>
      <trkpt lat="45.79837" lon="6.10527">
        <ele>1640.8000488281</ele>
        <time>2013-03-23T17:57:38.000Z</time>
      </trkpt>
      <trkpt lat="45.79834" lon="6.10525">
        <ele>1641.8000488281</ele>
        <time>2013-03-23T17:57:42.000Z</time>
      </trkpt>
      <trkpt lat="45.79832" lon="6.10524">
        <ele>1642.1999511719</ele>
        <time>2013-03-23T17:57:45.000Z</time>
      </trkpt>
      <trkpt lat="45.7983" lon="6.10522">
        <ele>1642.8000488281</ele>
        <time>2013-03-23T17:57:52.000Z</time>
      </trkpt>
      <trkpt lat="45.79831" lon="6.10528">
        <ele>1643.8000488281</ele>
        <time>2013-03-23T17:58:05.000Z</time>
      </trkpt>
      <trkpt lat="45.79832" lon="6.10531">
        <ele>1644.4000244141</ele>
        <time>2013-03-23T17:58:09.000Z</time>
      </trkpt>
      <trkpt lat="45.79832" lon="6.10534">
        <ele>1645</ele>
        <time>2013-03-23T17:58:14.000Z</time>
      </trkpt>
      <trkpt lat="45.79833" lon="6.10538">
        <ele>1645.5999755859</ele>
        <time>2013-03-23T17:58:18.000Z</time>
      </trkpt>
      <trkpt lat="45.79834" lon="6.10542">
        <ele>1646.1999511719</ele>
        <time>2013-03-23T17:58:23.000Z</time>
      </trkpt>
      <trkpt lat="45.79833" lon="6.10542">
        <ele>1646.5999755859</ele>
        <time>2013-03-23T17:58:31.000Z</time>
      </trkpt>
      <trkpt lat="45.7983" lon="6.10539">
        <ele>1647.1999511719</ele>
        <time>2013-03-23T17:58:36.000Z</time>
      </trkpt>
      <trkpt lat="45.79828" lon="6.10538">
        <ele>1647.4000244141</ele>
        <time>2013-03-23T17:58:38.000Z</time>
      </trkpt>
      <trkpt lat="45.79826" lon="6.10535">
        <ele>1647.8000488281</ele>
        <time>2013-03-23T17:58:45.000Z</time>
      </trkpt>
      <trkpt lat="45.79826" lon="6.10535">
        <ele>1647.8000488281</ele>
        <time>2013-03-23T17:58:51.000Z</time>
      </trkpt>
      <trkpt lat="45.79827" lon="6.10539">
        <ele>1648.1999511719</ele>
        <time>2013-03-23T17:59:00.000Z</time>
      </trkpt>
      <trkpt lat="45.79829" lon="6.10544">
        <ele>1648.5999755859</ele>
        <time>2013-03-23T17:59:05.000Z</time>
      </trkpt>
      <trkpt lat="45.79828" lon="6.10546">
        <ele>1649.4000244141</ele>
        <time>2013-03-23T17:59:10.000Z</time>
      </trkpt>
      <trkpt lat="45.79826" lon="6.10544">
        <ele>1649.5999755859</ele>
        <time>2013-03-23T17:59:14.000Z</time>
      </trkpt>
      <trkpt lat="45.79824" lon="6.10542">
        <ele>1650</ele>
        <time>2013-03-23T17:59:18.000Z</time>
      </trkpt>
      <trkpt lat="45.79822" lon="6.1054">
        <ele>1650.1999511719</ele>
        <time>2013-03-23T17:59:22.000Z</time>
      </trkpt>
      <trkpt lat="45.79821" lon="6.10537">
        <ele>1650.4000244141</ele>
        <time>2013-03-23T17:59:26.000Z</time>
      </trkpt>
      <trkpt lat="45.79819" lon="6.10534">
        <ele>1650.5999755859</ele>
        <time>2013-03-23T17:59:31.000Z</time>
      </trkpt>
      <trkpt lat="45.79818" lon="6.10536">
        <ele>1651</ele>
        <time>2013-03-23T17:59:37.000Z</time>
      </trkpt>
      <trkpt lat="45.79819" lon="6.10539">
        <ele>1651.4000244141</ele>
        <time>2013-03-23T17:59:41.000Z</time>
      </trkpt>
      <trkpt lat="45.79818" lon="6.10543">
        <ele>1652.4000244141</ele>
        <time>2013-03-23T17:59:45.000Z</time>
      </trkpt>
      <trkpt lat="45.79818" lon="6.10545">
        <ele>1653</ele>
        <time>2013-03-23T17:59:49.000Z</time>
      </trkpt>
      <trkpt lat="45.79818" lon="6.10545">
        <ele>1653</ele>
        <time>2013-03-23T17:59:51.000Z</time>
      </trkpt>
      <trkpt lat="45.79816" lon="6.10544">
        <ele>1653.5999755859</ele>
        <time>2013-03-23T17:59:55.000Z</time>
      </trkpt>
      <trkpt lat="45.79815" lon="6.10543">
        <ele>1653.8000488281</ele>
        <time>2013-03-23T17:59:59.000Z</time>
      </trkpt>
      <trkpt lat="45.79817" lon="6.10546">
        <ele>1653.5999755859</ele>
        <time>2013-03-23T18:00:18.000Z</time>
      </trkpt>
      <trkpt lat="45.79817" lon="6.10548">
        <ele>1654.1999511719</ele>
        <time>2013-03-23T18:00:24.000Z</time>
      </trkpt>
      <trkpt lat="45.79816" lon="6.10549">
        <ele>1654.5999755859</ele>
        <time>2013-03-23T18:00:27.000Z</time>
      </trkpt>
      <trkpt lat="45.79813" lon="6.10547">
        <ele>1655.4000244141</ele>
        <time>2013-03-23T18:00:33.000Z</time>
      </trkpt>
      <trkpt lat="45.79811" lon="6.10545">
        <ele>1655.8000488281</ele>
        <time>2013-03-23T18:00:37.000Z</time>
      </trkpt>
      <trkpt lat="45.7981" lon="6.10543">
        <ele>1655.8000488281</ele>
        <time>2013-03-23T18:00:42.000Z</time>
      </trkpt>
      <trkpt lat="45.79808" lon="6.10538">
        <ele>1655.8000488281</ele>
        <time>2013-03-23T18:00:49.000Z</time>
      </trkpt>
      <trkpt lat="45.79806" lon="6.10536">
        <ele>1656.1999511719</ele>
        <time>2013-03-23T18:00:53.000Z</time>
      </trkpt>
      <trkpt lat="45.79804" lon="6.10534">
        <ele>1656.5999755859</ele>
        <time>2013-03-23T18:00:57.000Z</time>
      </trkpt>
      <trkpt lat="45.79801" lon="6.10531">
        <ele>1657.4000244141</ele>
        <time>2013-03-23T18:01:03.000Z</time>
      </trkpt>
      <trkpt lat="45.79799" lon="6.10529">
        <ele>1658</ele>
        <time>2013-03-23T18:01:10.000Z</time>
      </trkpt>
      <trkpt lat="45.798" lon="6.10533">
        <ele>1658</ele>
        <time>2013-03-23T18:01:24.000Z</time>
      </trkpt>
      <trkpt lat="45.79801" lon="6.10537">
        <ele>1658.4000244141</ele>
        <time>2013-03-23T18:01:29.000Z</time>
      </trkpt>
      <trkpt lat="45.79801" lon="6.10539">
        <ele>1658.8000488281</ele>
        <time>2013-03-23T18:01:35.000Z</time>
      </trkpt>
      <trkpt lat="45.79801" lon="6.10539">
        <ele>1658.5999755859</ele>
        <time>2013-03-23T18:01:44.000Z</time>
      </trkpt>
      <trkpt lat="45.798" lon="6.10536">
        <ele>1658.4000244141</ele>
        <time>2013-03-23T18:02:23.000Z</time>
      </trkpt>
      <trkpt lat="45.79801" lon="6.10537">
        <ele>1658.1999511719</ele>
        <time>2013-03-23T18:02:33.000Z</time>
      </trkpt>
      <trkpt lat="45.79801" lon="6.10538">
        <ele>1658.4000244141</ele>
        <time>2013-03-23T18:02:41.000Z</time>
      </trkpt>
      <trkpt lat="45.798" lon="6.10539">
        <ele>1659.1999511719</ele>
        <time>2013-03-23T18:02:47.000Z</time>
      </trkpt>
      <trkpt lat="45.79799" lon="6.10541">
        <ele>1659.4000244141</ele>
        <time>2013-03-23T18:02:51.000Z</time>
      </trkpt>
      <trkpt lat="45.798" lon="6.10542">
        <ele>1659.4000244141</ele>
        <time>2013-03-23T18:03:04.000Z</time>
      </trkpt>
      <trkpt lat="45.798" lon="6.10544">
        <ele>1659.5999755859</ele>
        <time>2013-03-23T18:03:21.000Z</time>
      </trkpt>
      <trkpt lat="45.798" lon="6.10547">
        <ele>1660.1999511719</ele>
        <time>2013-03-23T18:03:26.000Z</time>
      </trkpt>
      <trkpt lat="45.79801" lon="6.10551">
        <ele>1660.4000244141</ele>
        <time>2013-03-23T18:03:33.000Z</time>
      </trkpt>
      <trkpt lat="45.79803" lon="6.10556">
        <ele>1660.5999755859</ele>
        <time>2013-03-23T18:03:39.000Z</time>
      </trkpt>
      <trkpt lat="45.79804" lon="6.10559">
        <ele>1660.5999755859</ele>
        <time>2013-03-23T18:03:44.000Z</time>
      </trkpt>
      <trkpt lat="45.79805" lon="6.10561">
        <ele>1660.8000488281</ele>
        <time>2013-03-23T18:03:48.000Z</time>
      </trkpt>
      <trkpt lat="45.79805" lon="6.10563">
        <ele>1661</ele>
        <time>2013-03-23T18:03:53.000Z</time>
      </trkpt>
      <trkpt lat="45.79807" lon="6.10567">
        <ele>1661</ele>
        <time>2013-03-23T18:03:59.000Z</time>
      </trkpt>
      <trkpt lat="45.79807" lon="6.10569">
        <ele>1661.4000244141</ele>
        <time>2013-03-23T18:04:02.000Z</time>
      </trkpt>
      <trkpt lat="45.79808" lon="6.1057">
        <ele>1661.4000244141</ele>
        <time>2013-03-23T18:04:07.000Z</time>
      </trkpt>
      <trkpt lat="45.79809" lon="6.1057">
        <ele>1661.1999511719</ele>
        <time>2013-03-23T18:04:20.000Z</time>
      </trkpt>
      <trkpt lat="45.79808" lon="6.10571">
        <ele>1661.4000244141</ele>
        <time>2013-03-23T18:04:31.000Z</time>
      </trkpt>
      <trkpt lat="45.79806" lon="6.10571">
        <ele>1662</ele>
        <time>2013-03-23T18:04:39.000Z</time>
      </trkpt>
      <trkpt lat="45.79807" lon="6.10572">
        <ele>1662</ele>
        <time>2013-03-23T18:04:55.000Z</time>
      </trkpt>
      <trkpt lat="45.79807" lon="6.10572">
        <ele>1662</ele>
        <time>2013-03-23T18:05:00.000Z</time>
      </trkpt>
      <trkpt lat="45.79806" lon="6.10572">
        <ele>1662.4000244141</ele>
        <time>2013-03-23T18:05:07.000Z</time>
      </trkpt>
      <trkpt lat="45.79805" lon="6.10573">
        <ele>1662.8000488281</ele>
        <time>2013-03-23T18:05:14.000Z</time>
      </trkpt>
      <trkpt lat="45.79805" lon="6.10575">
        <ele>1663</ele>
        <time>2013-03-23T18:05:19.000Z</time>
      </trkpt>
      <trkpt lat="45.79806" lon="6.10576">
        <ele>1662.8000488281</ele>
        <time>2013-03-23T18:05:28.000Z</time>
      </trkpt>
      <trkpt lat="45.79807" lon="6.10578">
        <ele>1662.8000488281</ele>
        <time>2013-03-23T18:06:29.000Z</time>
      </trkpt>
      <trkpt lat="45.79805" lon="6.1058">
        <ele>1663.8000488281</ele>
        <time>2013-03-23T18:07:22.000Z</time>
      </trkpt>
      <trkpt lat="45.7981" lon="6.10586">
        <ele>1663.1999511719</ele>
        <time>2013-03-23T18:08:16.000Z</time>
      </trkpt>
      <trkpt lat="45.7981" lon="6.10587">
        <ele>1663.1999511719</ele>
        <time>2013-03-23T18:08:32.000Z</time>
      </trkpt>
      <trkpt lat="45.7981" lon="6.10588">
        <ele>1663.1999511719</ele>
        <time>2013-03-23T18:08:39.000Z</time>
      </trkpt>
      <trkpt lat="45.79811" lon="6.1059">
        <ele>1663.4000244141</ele>
        <time>2013-03-23T18:08:48.000Z</time>
      </trkpt>
      <trkpt lat="45.79811" lon="6.10591">
        <ele>1663.4000244141</ele>
        <time>2013-03-23T18:08:56.000Z</time>
      </trkpt>
      <trkpt lat="45.7981" lon="6.10593">
        <ele>1663.5999755859</ele>
        <time>2013-03-23T18:09:02.000Z</time>
      </trkpt>
      <trkpt lat="45.79808" lon="6.10594">
        <ele>1664</ele>
        <time>2013-03-23T18:09:08.000Z</time>
      </trkpt>
      <trkpt lat="45.79808" lon="6.10593">
        <ele>1664.1999511719</ele>
        <time>2013-03-23T18:09:15.000Z</time>
      </trkpt>
      <trkpt lat="45.79807" lon="6.10592">
        <ele>1664.1999511719</ele>
        <time>2013-03-23T18:10:16.000Z</time>
      </trkpt>
      <trkpt lat="45.79804" lon="6.1059">
        <ele>1664.8000488281</ele>
        <time>2013-03-23T18:11:04.000Z</time>
      </trkpt>
      <trkpt lat="45.79801" lon="6.10586">
        <ele>1665.5999755859</ele>
        <time>2013-03-23T18:11:09.000Z</time>
      </trkpt>
      <trkpt lat="45.798" lon="6.10584">
        <ele>1665.8000488281</ele>
        <time>2013-03-23T18:11:15.000Z</time>
      </trkpt>
      <trkpt lat="45.79799" lon="6.10584">
        <ele>1666</ele>
        <time>2013-03-23T18:11:30.000Z</time>
      </trkpt>
      <trkpt lat="45.79798" lon="6.10582">
        <ele>1666.1999511719</ele>
        <time>2013-03-23T18:12:33.000Z</time>
      </trkpt>
      <trkpt lat="45.79797" lon="6.10581">
        <ele>1666.1999511719</ele>
        <time>2013-03-23T18:12:43.000Z</time>
      </trkpt>
      <trkpt lat="45.79796" lon="6.10581">
        <ele>1666.1999511719</ele>
        <time>2013-03-23T18:12:50.000Z</time>
      </trkpt>
      <trkpt lat="45.79792" lon="6.1058">
        <ele>1667.4000244141</ele>
        <time>2013-03-23T18:13:13.000Z</time>
      </trkpt>
      <trkpt lat="45.79787" lon="6.1058">
        <ele>1668.5999755859</ele>
        <time>2013-03-23T18:13:19.000Z</time>
      </trkpt>
      <trkpt lat="45.79785" lon="6.10578">
        <ele>1669</ele>
        <time>2013-03-23T18:13:22.000Z</time>
      </trkpt>
      <trkpt lat="45.79783" lon="6.10576">
        <ele>1669.5999755859</ele>
        <time>2013-03-23T18:13:26.000Z</time>
      </trkpt>
      <trkpt lat="45.79779" lon="6.10573">
        <ele>1670.1999511719</ele>
        <time>2013-03-23T18:13:31.000Z</time>
      </trkpt>
      <trkpt lat="45.79776" lon="6.10571">
        <ele>1671</ele>
        <time>2013-03-23T18:13:36.000Z</time>
      </trkpt>
      <trkpt lat="45.79773" lon="6.10567">
        <ele>1671.5999755859</ele>
        <time>2013-03-23T18:13:41.000Z</time>
      </trkpt>
      <trkpt lat="45.79772" lon="6.10565">
        <ele>1672</ele>
        <time>2013-03-23T18:13:44.000Z</time>
      </trkpt>
      <trkpt lat="45.7977" lon="6.10562">
        <ele>1672.4000244141</ele>
        <time>2013-03-23T18:13:48.000Z</time>
      </trkpt>
      <trkpt lat="45.79768" lon="6.10558">
        <ele>1672.8000488281</ele>
        <time>2013-03-23T18:13:53.000Z</time>
      </trkpt>
      <trkpt lat="45.79765" lon="6.10555">
        <ele>1673.5999755859</ele>
        <time>2013-03-23T18:13:58.000Z</time>
      </trkpt>
      <trkpt lat="45.79764" lon="6.10553">
        <ele>1674</ele>
        <time>2013-03-23T18:14:01.000Z</time>
      </trkpt>
      <trkpt lat="45.7976" lon="6.10549">
        <ele>1675.1999511719</ele>
        <time>2013-03-23T18:14:06.000Z</time>
      </trkpt>
      <trkpt lat="45.79757" lon="6.10546">
        <ele>1676.1999511719</ele>
        <time>2013-03-23T18:14:11.000Z</time>
      </trkpt>
      <trkpt lat="45.79755" lon="6.10544">
        <ele>1676.8000488281</ele>
        <time>2013-03-23T18:14:13.000Z</time>
      </trkpt>
      <trkpt lat="45.79752" lon="6.10539">
        <ele>1678.1999511719</ele>
        <time>2013-03-23T18:14:19.000Z</time>
      </trkpt>
      <trkpt lat="45.79749" lon="6.10535">
        <ele>1678.8000488281</ele>
        <time>2013-03-23T18:14:23.000Z</time>
      </trkpt>
      <trkpt lat="45.79747" lon="6.10531">
        <ele>1678.8000488281</ele>
        <time>2013-03-23T18:14:28.000Z</time>
      </trkpt>
      <trkpt lat="45.79745" lon="6.10527">
        <ele>1678.8000488281</ele>
        <time>2013-03-23T18:14:32.000Z</time>
      </trkpt>
      <trkpt lat="45.79744" lon="6.10526">
        <ele>1678.8000488281</ele>
        <time>2013-03-23T18:14:33.000Z</time>
      </trkpt>
      <trkpt lat="45.7974" lon="6.10519">
        <ele>1678.8000488281</ele>
        <time>2013-03-23T18:14:40.000Z</time>
      </trkpt>
      <trkpt lat="45.79737" lon="6.10513">
        <ele>1679</ele>
        <time>2013-03-23T18:14:45.000Z</time>
      </trkpt>
      <trkpt lat="45.79734" lon="6.10509">
        <ele>1679</ele>
        <time>2013-03-23T18:14:49.000Z</time>
      </trkpt>
      <trkpt lat="45.79731" lon="6.10501">
        <ele>1679.4000244141</ele>
        <time>2013-03-23T18:14:55.000Z</time>
      </trkpt>
      <trkpt lat="45.79728" lon="6.10495">
        <ele>1679</ele>
        <time>2013-03-23T18:15:00.000Z</time>
      </trkpt>
      <trkpt lat="45.79725" lon="6.10491">
        <ele>1678.8000488281</ele>
        <time>2013-03-23T18:15:04.000Z</time>
      </trkpt>
      <trkpt lat="45.79724" lon="6.10488">
        <ele>1678.8000488281</ele>
        <time>2013-03-23T18:15:07.000Z</time>
      </trkpt>
      <trkpt lat="45.79722" lon="6.10485">
        <ele>1678.5999755859</ele>
        <time>2013-03-23T18:15:10.000Z</time>
      </trkpt>
      <trkpt lat="45.79721" lon="6.10481">
        <ele>1678.5999755859</ele>
        <time>2013-03-23T18:15:14.000Z</time>
      </trkpt>
      <trkpt lat="45.7972" lon="6.10474">
        <ele>1678.1999511719</ele>
        <time>2013-03-23T18:15:21.000Z</time>
      </trkpt>
      <trkpt lat="45.7972" lon="6.10472">
        <ele>1678</ele>
        <time>2013-03-23T18:15:28.000Z</time>
      </trkpt>
      <trkpt lat="45.79721" lon="6.10471">
        <ele>1678</ele>
        <time>2013-03-23T18:15:39.000Z</time>
      </trkpt>
      <trkpt lat="45.79719" lon="6.10472">
        <ele>1678.1999511719</ele>
        <time>2013-03-23T18:15:47.000Z</time>
      </trkpt>
      <trkpt lat="45.79719" lon="6.10473">
        <ele>1678.1999511719</ele>
        <time>2013-03-23T18:17:04.000Z</time>
      </trkpt>
      <trkpt lat="45.79719" lon="6.10473">
        <ele>1678.1999511719</ele>
        <time>2013-03-23T18:17:16.000Z</time>
      </trkpt>
      <trkpt lat="45.79718" lon="6.10472">
        <ele>1678.1999511719</ele>
        <time>2013-03-23T18:17:24.000Z</time>
      </trkpt>
      <trkpt lat="45.7972" lon="6.10472">
        <ele>1678.1999511719</ele>
        <time>2013-03-23T18:17:29.000Z</time>
      </trkpt>
      <trkpt lat="45.7972" lon="6.10472">
        <ele>1678.1999511719</ele>
        <time>2013-03-23T18:18:45.000Z</time>
      </trkpt>
      <trkpt lat="45.79718" lon="6.10469">
        <ele>1678</ele>
        <time>2013-03-23T18:19:42.000Z</time>
      </trkpt>
      <trkpt lat="45.79717" lon="6.10466">
        <ele>1678</ele>
        <time>2013-03-23T18:19:49.000Z</time>
      </trkpt>
      <trkpt lat="45.79719" lon="6.10468">
        <ele>1678</ele>
        <time>2013-03-23T18:19:54.000Z</time>
      </trkpt>
      <trkpt lat="45.7972" lon="6.10471">
        <ele>1678</ele>
        <time>2013-03-23T18:19:59.000Z</time>
      </trkpt>
      <trkpt lat="45.79719" lon="6.10472">
        <ele>1678.1999511719</ele>
        <time>2013-03-23T18:21:58.000Z</time>
      </trkpt>
      <trkpt lat="45.79718" lon="6.10473">
        <ele>1678.4000244141</ele>
        <time>2013-03-23T18:22:46.000Z</time>
      </trkpt>
      <trkpt lat="45.79717" lon="6.10474">
        <ele>1678.4000244141</ele>
        <time>2013-03-23T18:22:49.000Z</time>
      </trkpt>
      <trkpt lat="45.79712" lon="6.10477">
        <ele>1678.8000488281</ele>
        <time>2013-03-23T18:22:53.000Z</time>
      </trkpt>
      <trkpt lat="45.79701" lon="6.10472">
        <ele>1679.5999755859</ele>
        <time>2013-03-23T18:22:59.000Z</time>
      </trkpt>
      <trkpt lat="45.79686" lon="6.10461">
        <ele>1681.1999511719</ele>
        <time>2013-03-23T18:23:04.000Z</time>
      </trkpt>
      <trkpt lat="45.79679" lon="6.10455">
        <ele>1682.1999511719</ele>
        <time>2013-03-23T18:23:06.000Z</time>
      </trkpt>
      <trkpt lat="45.79672" lon="6.10463">
        <ele>1682.5999755859</ele>
        <time>2013-03-23T18:23:10.000Z</time>
      </trkpt>
      <trkpt lat="45.79672" lon="6.10481">
        <ele>1681.8000488281</ele>
        <time>2013-03-23T18:23:14.000Z</time>
      </trkpt>
      <trkpt lat="45.79679" lon="6.105">
        <ele>1680.5999755859</ele>
        <time>2013-03-23T18:23:18.000Z</time>
      </trkpt>
      <trkpt lat="45.79687" lon="6.10511">
        <ele>1679.1999511719</ele>
        <time>2013-03-23T18:23:22.000Z</time>
      </trkpt>
      <trkpt lat="45.79702" lon="6.10534">
        <ele>1677.1999511719</ele>
        <time>2013-03-23T18:23:30.000Z</time>
      </trkpt>
      <trkpt lat="45.7972" lon="6.10554">
        <ele>1676.8000488281</ele>
        <time>2013-03-23T18:23:37.000Z</time>
      </trkpt>
      <trkpt lat="45.79725" lon="6.10563">
        <ele>1676.8000488281</ele>
        <time>2013-03-23T18:23:39.000Z</time>
      </trkpt>
      <trkpt lat="45.79739" lon="6.10578">
        <ele>1677.8000488281</ele>
        <time>2013-03-23T18:23:43.000Z</time>
      </trkpt>
      <trkpt lat="45.79746" lon="6.10592">
        <ele>1677.8000488281</ele>
        <time>2013-03-23T18:23:45.000Z</time>
      </trkpt>
      <trkpt lat="45.79757" lon="6.10603">
        <ele>1676</ele>
        <time>2013-03-23T18:23:47.000Z</time>
      </trkpt>
      <trkpt lat="45.79777" lon="6.1062">
        <ele>1671.1999511719</ele>
        <time>2013-03-23T18:23:51.000Z</time>
      </trkpt>
      <trkpt lat="45.79793" lon="6.10635">
        <ele>1668.5999755859</ele>
        <time>2013-03-23T18:23:54.000Z</time>
      </trkpt>
      <trkpt lat="45.79812" lon="6.10649">
        <ele>1666.5999755859</ele>
        <time>2013-03-23T18:23:57.000Z</time>
      </trkpt>
      <trkpt lat="45.79812" lon="6.10649">
        <ele>1666.5999755859</ele>
        <time>2013-03-23T18:23:57.000Z</time>
      </trkpt>
      <trkpt lat="45.79833" lon="6.10666">
        <ele>1665.8000488281</ele>
        <time>2013-03-23T18:24:00.000Z</time>
      </trkpt>
      <trkpt lat="45.79855" lon="6.10682">
        <ele>1660</ele>
        <time>2013-03-23T18:24:03.000Z</time>
      </trkpt>
      <trkpt lat="45.79862" lon="6.10688">
        <ele>1658.4000244141</ele>
        <time>2013-03-23T18:24:05.000Z</time>
      </trkpt>
      <trkpt lat="45.79863" lon="6.10687">
        <ele>1658</ele>
        <time>2013-03-23T18:24:09.000Z</time>
      </trkpt>
      <trkpt lat="45.79864" lon="6.10686">
        <ele>1657.8000488281</ele>
        <time>2013-03-23T18:24:38.000Z</time>
      </trkpt>
      <trkpt lat="45.79865" lon="6.10687">
        <ele>1657.5999755859</ele>
        <time>2013-03-23T18:24:55.000Z</time>
      </trkpt>
      <trkpt lat="45.79879" lon="6.10698">
        <ele>1655.1999511719</ele>
        <time>2013-03-23T18:25:00.000Z</time>
      </trkpt>
      <trkpt lat="45.79903" lon="6.10724">
        <ele>1653.5999755859</ele>
        <time>2013-03-23T18:25:05.000Z</time>
      </trkpt>
      <trkpt lat="45.79927" lon="6.10745">
        <ele>1652.5999755859</ele>
        <time>2013-03-23T18:25:10.000Z</time>
      </trkpt>
      <trkpt lat="45.79941" lon="6.10753">
        <ele>1650.4000244141</ele>
        <time>2013-03-23T18:25:13.000Z</time>
      </trkpt>
      <trkpt lat="45.79957" lon="6.10755">
        <ele>1647</ele>
        <time>2013-03-23T18:25:16.000Z</time>
      </trkpt>
      <trkpt lat="45.79984" lon="6.1077">
        <ele>1643.5999755859</ele>
        <time>2013-03-23T18:25:20.000Z</time>
      </trkpt>
      <trkpt lat="45.79991" lon="6.10776">
        <ele>1643.5999755859</ele>
        <time>2013-03-23T18:25:21.000Z</time>
      </trkpt>
      <trkpt lat="45.80019" lon="6.10801">
        <ele>1642.8000488281</ele>
        <time>2013-03-23T18:25:25.000Z</time>
      </trkpt>
      <trkpt lat="45.80049" lon="6.10819">
        <ele>1640.4000244141</ele>
        <time>2013-03-23T18:25:29.000Z</time>
      </trkpt>
      <trkpt lat="45.80066" lon="6.10826">
        <ele>1639</ele>
        <time>2013-03-23T18:25:31.000Z</time>
      </trkpt>
      <trkpt lat="45.8012" lon="6.10841">
        <ele>1628</ele>
        <time>2013-03-23T18:25:37.000Z</time>
      </trkpt>
      <trkpt lat="45.80163" lon="6.10869">
        <ele>1622</ele>
        <time>2013-03-23T18:25:42.000Z</time>
      </trkpt>
      <trkpt lat="45.8019" lon="6.10881">
        <ele>1618.1999511719</ele>
        <time>2013-03-23T18:25:46.000Z</time>
      </trkpt>
      <trkpt lat="45.80199" lon="6.10867">
        <ele>1614</ele>
        <time>2013-03-23T18:25:48.000Z</time>
      </trkpt>
      <trkpt lat="45.80205" lon="6.10858">
        <ele>1611.8000488281</ele>
        <time>2013-03-23T18:25:50.000Z</time>
      </trkpt>
      <trkpt lat="45.80209" lon="6.10858">
        <ele>1611.1999511719</ele>
        <time>2013-03-23T18:25:54.000Z</time>
      </trkpt>
      <trkpt lat="45.80209" lon="6.10856">
        <ele>1610.8000488281</ele>
        <time>2013-03-23T18:25:55.000Z</time>
      </trkpt>
      <trkpt lat="45.80209" lon="6.10851">
        <ele>1610.1999511719</ele>
        <time>2013-03-23T18:25:57.000Z</time>
      </trkpt>
      <trkpt lat="45.80208" lon="6.10847">
        <ele>1610</ele>
        <time>2013-03-23T18:26:05.000Z</time>
      </trkpt>
      <trkpt lat="45.80212" lon="6.10846">
        <ele>1609.4000244141</ele>
        <time>2013-03-23T18:26:23.000Z</time>
      </trkpt>
      <trkpt lat="45.80217" lon="6.10841">
        <ele>1608.1999511719</ele>
        <time>2013-03-23T18:26:30.000Z</time>
      </trkpt>
      <trkpt lat="45.8022" lon="6.10836">
        <ele>1607.4000244141</ele>
        <time>2013-03-23T18:26:37.000Z</time>
      </trkpt>
      <trkpt lat="45.80222" lon="6.10833">
        <ele>1606.8000488281</ele>
        <time>2013-03-23T18:26:44.000Z</time>
      </trkpt>
      <trkpt lat="45.80223" lon="6.10827">
        <ele>1606.8000488281</ele>
        <time>2013-03-23T18:26:50.000Z</time>
      </trkpt>
      <trkpt lat="45.80223" lon="6.10827">
        <ele>1606.8000488281</ele>
        <time>2013-03-23T18:26:59.000Z</time>
      </trkpt>
      <trkpt lat="45.80222" lon="6.10826">
        <ele>1606.8000488281</ele>
        <time>2013-03-23T18:27:35.000Z</time>
      </trkpt>
      <trkpt lat="45.80222" lon="6.10821">
        <ele>1606.8000488281</ele>
        <time>2013-03-23T18:27:50.000Z</time>
      </trkpt>
      <trkpt lat="45.80222" lon="6.10815">
        <ele>1606.8000488281</ele>
        <time>2013-03-23T18:27:53.000Z</time>
      </trkpt>
      <trkpt lat="45.80222" lon="6.10806">
        <ele>1606.5999755859</ele>
        <time>2013-03-23T18:27:59.000Z</time>
      </trkpt>
      <trkpt lat="45.80223" lon="6.10802">
        <ele>1606.5999755859</ele>
        <time>2013-03-23T18:28:04.000Z</time>
      </trkpt>
      <trkpt lat="45.80224" lon="6.10797">
        <ele>1606.5999755859</ele>
        <time>2013-03-23T18:28:09.000Z</time>
      </trkpt>
      <trkpt lat="45.80229" lon="6.10781">
        <ele>1606.4000244141</ele>
        <time>2013-03-23T18:28:13.000Z</time>
      </trkpt>
      <trkpt lat="45.8024" lon="6.10752">
        <ele>1606.5999755859</ele>
        <time>2013-03-23T18:28:18.000Z</time>
      </trkpt>
      <trkpt lat="45.80248" lon="6.10731">
        <ele>1607</ele>
        <time>2013-03-23T18:28:22.000Z</time>
      </trkpt>
      <trkpt lat="45.8025" lon="6.10715">
        <ele>1607.4000244141</ele>
        <time>2013-03-23T18:28:29.000Z</time>
      </trkpt>
      <trkpt lat="45.80248" lon="6.10695">
        <ele>1607.4000244141</ele>
        <time>2013-03-23T18:28:36.000Z</time>
      </trkpt>
      <trkpt lat="45.80246" lon="6.10687">
        <ele>1607.5999755859</ele>
        <time>2013-03-23T18:28:39.000Z</time>
      </trkpt>
      <trkpt lat="45.80246" lon="6.10687">
        <ele>1607.5999755859</ele>
        <time>2013-03-23T18:28:43.000Z</time>
      </trkpt>
      <trkpt lat="45.80249" lon="6.10683">
        <ele>1607.5999755859</ele>
        <time>2013-03-23T18:29:13.000Z</time>
      </trkpt>
      <trkpt lat="45.8025" lon="6.10681">
        <ele>1607.8000488281</ele>
        <time>2013-03-23T18:29:15.000Z</time>
      </trkpt>
      <trkpt lat="45.80252" lon="6.10669">
        <ele>1607.8000488281</ele>
        <time>2013-03-23T18:29:20.000Z</time>
      </trkpt>
      <trkpt lat="45.80253" lon="6.10667">
        <ele>1607.8000488281</ele>
        <time>2013-03-23T18:29:21.000Z</time>
      </trkpt>
      <trkpt lat="45.80259" lon="6.10663">
        <ele>1607.5999755859</ele>
        <time>2013-03-23T18:29:26.000Z</time>
      </trkpt>
      <trkpt lat="45.80264" lon="6.10658">
        <ele>1607.5999755859</ele>
        <time>2013-03-23T18:29:32.000Z</time>
      </trkpt>
      <trkpt lat="45.8027" lon="6.10653">
        <ele>1607.4000244141</ele>
        <time>2013-03-23T18:29:39.000Z</time>
      </trkpt>
      <trkpt lat="45.8027" lon="6.10652">
        <ele>1607.4000244141</ele>
        <time>2013-03-23T18:29:40.000Z</time>
      </trkpt>
      <trkpt lat="45.80272" lon="6.10647">
        <ele>1607.4000244141</ele>
        <time>2013-03-23T18:29:50.000Z</time>
      </trkpt>
      <trkpt lat="45.80276" lon="6.10645">
        <ele>1607.4000244141</ele>
        <time>2013-03-23T18:29:56.000Z</time>
      </trkpt>
      <trkpt lat="45.80279" lon="6.10645">
        <ele>1607.4000244141</ele>
        <time>2013-03-23T18:30:03.000Z</time>
      </trkpt>
      <trkpt lat="45.8028" lon="6.10646">
        <ele>1607.4000244141</ele>
        <time>2013-03-23T18:30:06.000Z</time>
      </trkpt>
      <trkpt lat="45.80282" lon="6.10648">
        <ele>1607.4000244141</ele>
        <time>2013-03-23T18:30:16.000Z</time>
      </trkpt>
      <trkpt lat="45.80286" lon="6.10648">
        <ele>1607.4000244141</ele>
        <time>2013-03-23T18:30:51.000Z</time>
      </trkpt>
      <trkpt lat="45.80286" lon="6.10648">
        <ele>1607.4000244141</ele>
        <time>2013-03-23T18:30:56.000Z</time>
      </trkpt>
      <trkpt lat="45.80287" lon="6.10646">
        <ele>1607.4000244141</ele>
        <time>2013-03-23T18:31:01.000Z</time>
      </trkpt>
      <trkpt lat="45.80284" lon="6.10649">
        <ele>1607.4000244141</ele>
        <time>2013-03-23T18:31:18.000Z</time>
      </trkpt>
      <trkpt lat="45.80282" lon="6.10651">
        <ele>1607.4000244141</ele>
        <time>2013-03-23T18:31:23.000Z</time>
      </trkpt>
      <trkpt lat="45.80283" lon="6.10649">
        <ele>1607.4000244141</ele>
        <time>2013-03-23T18:31:56.000Z</time>
      </trkpt>
      <trkpt lat="45.80282" lon="6.10643">
        <ele>1607.4000244141</ele>
        <time>2013-03-23T18:32:57.000Z</time>
      </trkpt>
      <trkpt lat="45.80278" lon="6.10641">
        <ele>1607.4000244141</ele>
        <time>2013-03-23T18:33:03.000Z</time>
      </trkpt>
      <trkpt lat="45.80275" lon="6.10632">
        <ele>1607.1999511719</ele>
        <time>2013-03-23T18:33:09.000Z</time>
      </trkpt>
      <trkpt lat="45.80274" lon="6.10624">
        <ele>1607.1999511719</ele>
        <time>2013-03-23T18:33:15.000Z</time>
      </trkpt>
      <trkpt lat="45.80274" lon="6.10622">
        <ele>1607</ele>
        <time>2013-03-23T18:33:17.000Z</time>
      </trkpt>
      <trkpt lat="45.80269" lon="6.10609">
        <ele>1606.8000488281</ele>
        <time>2013-03-23T18:33:26.000Z</time>
      </trkpt>
      <trkpt lat="45.80267" lon="6.10599">
        <ele>1606.4000244141</ele>
        <time>2013-03-23T18:33:33.000Z</time>
      </trkpt>
      <trkpt lat="45.80266" lon="6.10596">
        <ele>1606.1999511719</ele>
        <time>2013-03-23T18:33:36.000Z</time>
      </trkpt>
      <trkpt lat="45.80263" lon="6.10592">
        <ele>1606</ele>
        <time>2013-03-23T18:33:40.000Z</time>
      </trkpt>
      <trkpt lat="45.80263" lon="6.10591">
        <ele>1606</ele>
        <time>2013-03-23T18:33:53.000Z</time>
      </trkpt>
      <trkpt lat="45.80262" lon="6.10588">
        <ele>1606</ele>
        <time>2013-03-23T18:33:57.000Z</time>
      </trkpt>
      <trkpt lat="45.80263" lon="6.10589">
        <ele>1606</ele>
        <time>2013-03-23T18:34:01.000Z</time>
      </trkpt>
      <trkpt lat="45.80261" lon="6.10589">
        <ele>1605.8000488281</ele>
        <time>2013-03-23T18:34:09.000Z</time>
      </trkpt>
      <trkpt lat="45.80264" lon="6.10588">
        <ele>1606</ele>
        <time>2013-03-23T18:34:19.000Z</time>
      </trkpt>
      <trkpt lat="45.80266" lon="6.10587">
        <ele>1606.1999511719</ele>
        <time>2013-03-23T18:34:25.000Z</time>
      </trkpt>
      <trkpt lat="45.80266" lon="6.10584">
        <ele>1606</ele>
        <time>2013-03-23T18:34:51.000Z</time>
      </trkpt>
      <trkpt lat="45.80264" lon="6.10586">
        <ele>1606</ele>
        <time>2013-03-23T18:35:00.000Z</time>
      </trkpt>
      <trkpt lat="45.80263" lon="6.1059">
        <ele>1606</ele>
        <time>2013-03-23T18:35:28.000Z</time>
      </trkpt>
      <trkpt lat="45.80263" lon="6.1059">
        <ele>1606</ele>
        <time>2013-03-23T18:35:41.000Z</time>
      </trkpt>
      <trkpt lat="45.80039" lon="6.10809">
        <ele>1640</ele>
        <time>2013-03-23T19:00:50.000Z</time>
      </trkpt>
      <trkpt lat="45.80036" lon="6.10807">
        <ele>1640.1999511719</ele>
        <time>2013-03-23T19:00:55.000Z</time>
      </trkpt>
      <trkpt lat="45.80032" lon="6.10805">
        <ele>1640.5999755859</ele>
        <time>2013-03-23T19:01:00.000Z</time>
      </trkpt>
      <trkpt lat="45.80028" lon="6.10804">
        <ele>1641.1999511719</ele>
        <time>2013-03-23T19:01:05.000Z</time>
      </trkpt>
      <trkpt lat="45.80024" lon="6.10802">
        <ele>1642</ele>
        <time>2013-03-23T19:01:10.000Z</time>
      </trkpt>
      <trkpt lat="45.8002" lon="6.10801">
        <ele>1642.5999755859</ele>
        <time>2013-03-23T19:01:15.000Z</time>
      </trkpt>
      <trkpt lat="45.80013" lon="6.10798">
        <ele>1643.4000244141</ele>
        <time>2013-03-23T19:01:22.000Z</time>
      </trkpt>
      <trkpt lat="45.80007" lon="6.10792">
        <ele>1643.8000488281</ele>
        <time>2013-03-23T19:01:28.000Z</time>
      </trkpt>
      <trkpt lat="45.80002" lon="6.10788">
        <ele>1644</ele>
        <time>2013-03-23T19:01:34.000Z</time>
      </trkpt>
      <trkpt lat="45.79996" lon="6.10782">
        <ele>1643.8000488281</ele>
        <time>2013-03-23T19:01:41.000Z</time>
      </trkpt>
      <trkpt lat="45.79993" lon="6.10779">
        <ele>1643.8000488281</ele>
        <time>2013-03-23T19:01:44.000Z</time>
      </trkpt>
      <trkpt lat="45.79988" lon="6.10776">
        <ele>1644</ele>
        <time>2013-03-23T19:01:49.000Z</time>
      </trkpt>
      <trkpt lat="45.79983" lon="6.10773">
        <ele>1644.1999511719</ele>
        <time>2013-03-23T19:01:54.000Z</time>
      </trkpt>
      <trkpt lat="45.79978" lon="6.1077">
        <ele>1644.5999755859</ele>
        <time>2013-03-23T19:02:00.000Z</time>
      </trkpt>
      <trkpt lat="45.79972" lon="6.10766">
        <ele>1645</ele>
        <time>2013-03-23T19:02:07.000Z</time>
      </trkpt>
      <trkpt lat="45.7997" lon="6.10764">
        <ele>1645.4000244141</ele>
        <time>2013-03-23T19:02:09.000Z</time>
      </trkpt>
      <trkpt lat="45.79964" lon="6.10762">
        <ele>1646.1999511719</ele>
        <time>2013-03-23T19:02:15.000Z</time>
      </trkpt>
      <trkpt lat="45.7996" lon="6.1076">
        <ele>1646.8000488281</ele>
        <time>2013-03-23T19:02:19.000Z</time>
      </trkpt>
      <trkpt lat="45.79949" lon="6.10757">
        <ele>1648.8000488281</ele>
        <time>2013-03-23T19:02:28.000Z</time>
      </trkpt>
      <trkpt lat="45.79944" lon="6.10754">
        <ele>1649.8000488281</ele>
        <time>2013-03-23T19:02:32.000Z</time>
      </trkpt>
      <trkpt lat="45.79937" lon="6.10751">
        <ele>1651.1999511719</ele>
        <time>2013-03-23T19:02:39.000Z</time>
      </trkpt>
      <trkpt lat="45.7993" lon="6.10746">
        <ele>1652.1999511719</ele>
        <time>2013-03-23T19:02:45.000Z</time>
      </trkpt>
      <trkpt lat="45.79924" lon="6.10742">
        <ele>1652.5999755859</ele>
        <time>2013-03-23T19:02:51.000Z</time>
      </trkpt>
      <trkpt lat="45.79918" lon="6.10736">
        <ele>1653.4000244141</ele>
        <time>2013-03-23T19:02:57.000Z</time>
      </trkpt>
      <trkpt lat="45.79911" lon="6.1073">
        <ele>1653.4000244141</ele>
        <time>2013-03-23T19:03:04.000Z</time>
      </trkpt>
      <trkpt lat="45.79904" lon="6.10724">
        <ele>1653.4000244141</ele>
        <time>2013-03-23T19:03:11.000Z</time>
      </trkpt>
      <trkpt lat="45.79896" lon="6.10716">
        <ele>1653.5999755859</ele>
        <time>2013-03-23T19:03:19.000Z</time>
      </trkpt>
      <trkpt lat="45.79889" lon="6.10709">
        <ele>1654</ele>
        <time>2013-03-23T19:03:26.000Z</time>
      </trkpt>
      <trkpt lat="45.79884" lon="6.10704">
        <ele>1654.5999755859</ele>
        <time>2013-03-23T19:03:32.000Z</time>
      </trkpt>
      <trkpt lat="45.79879" lon="6.107">
        <ele>1655.1999511719</ele>
        <time>2013-03-23T19:03:37.000Z</time>
      </trkpt>
      <trkpt lat="45.79875" lon="6.10697">
        <ele>1656</ele>
        <time>2013-03-23T19:03:42.000Z</time>
      </trkpt>
      <trkpt lat="45.7987" lon="6.10693">
        <ele>1656.8000488281</ele>
        <time>2013-03-23T19:03:47.000Z</time>
      </trkpt>
      <trkpt lat="45.79864" lon="6.10688">
        <ele>1657.8000488281</ele>
        <time>2013-03-23T19:03:53.000Z</time>
      </trkpt>
      <trkpt lat="45.79859" lon="6.10684">
        <ele>1659</ele>
        <time>2013-03-23T19:03:59.000Z</time>
      </trkpt>
      <trkpt lat="45.79854" lon="6.10679">
        <ele>1660.1999511719</ele>
        <time>2013-03-23T19:04:05.000Z</time>
      </trkpt>
      <trkpt lat="45.7985" lon="6.10675">
        <ele>1661.1999511719</ele>
        <time>2013-03-23T19:04:09.000Z</time>
      </trkpt>
      <trkpt lat="45.79844" lon="6.1067">
        <ele>1662.8000488281</ele>
        <time>2013-03-23T19:04:15.000Z</time>
      </trkpt>
      <trkpt lat="45.79838" lon="6.10663">
        <ele>1664</ele>
        <time>2013-03-23T19:04:22.000Z</time>
      </trkpt>
      <trkpt lat="45.79834" lon="6.10657">
        <ele>1664.5999755859</ele>
        <time>2013-03-23T19:04:29.000Z</time>
      </trkpt>
      <trkpt lat="45.79833" lon="6.10653">
        <ele>1664.4000244141</ele>
        <time>2013-03-23T19:04:33.000Z</time>
      </trkpt>
      <trkpt lat="45.7983" lon="6.10646">
        <ele>1664</ele>
        <time>2013-03-23T19:04:39.000Z</time>
      </trkpt>
      <trkpt lat="45.79828" lon="6.10643">
        <ele>1664.1999511719</ele>
        <time>2013-03-23T19:04:43.000Z</time>
      </trkpt>
      <trkpt lat="45.79822" lon="6.10638">
        <ele>1664.4000244141</ele>
        <time>2013-03-23T19:04:50.000Z</time>
      </trkpt>
      <trkpt lat="45.7982" lon="6.10636">
        <ele>1664.5999755859</ele>
        <time>2013-03-23T19:04:53.000Z</time>
      </trkpt>
      <trkpt lat="45.79814" lon="6.1063">
        <ele>1665.1999511719</ele>
        <time>2013-03-23T19:05:01.000Z</time>
      </trkpt>
      <trkpt lat="45.79809" lon="6.10625">
        <ele>1665.5999755859</ele>
        <time>2013-03-23T19:05:07.000Z</time>
      </trkpt>
      <trkpt lat="45.79807" lon="6.10624">
        <ele>1665.8000488281</ele>
        <time>2013-03-23T19:05:09.000Z</time>
      </trkpt>
      <trkpt lat="45.79802" lon="6.10618">
        <ele>1666.5999755859</ele>
        <time>2013-03-23T19:05:17.000Z</time>
      </trkpt>
      <trkpt lat="45.79797" lon="6.10612">
        <ele>1667.4000244141</ele>
        <time>2013-03-23T19:05:24.000Z</time>
      </trkpt>
      <trkpt lat="45.79794" lon="6.1061">
        <ele>1667.8000488281</ele>
        <time>2013-03-23T19:05:27.000Z</time>
      </trkpt>
      <trkpt lat="45.7979" lon="6.10603">
        <ele>1668.5999755859</ele>
        <time>2013-03-23T19:05:34.000Z</time>
      </trkpt>
      <trkpt lat="45.7979" lon="6.10602">
        <ele>1668.5999755859</ele>
        <time>2013-03-23T19:05:35.000Z</time>
      </trkpt>
      <trkpt lat="45.79787" lon="6.10598">
        <ele>1669.1999511719</ele>
        <time>2013-03-23T19:05:39.000Z</time>
      </trkpt>
      <trkpt lat="45.79785" lon="6.10594">
        <ele>1669.8000488281</ele>
        <time>2013-03-23T19:05:44.000Z</time>
      </trkpt>
      <trkpt lat="45.79782" lon="6.10589">
        <ele>1670.4000244141</ele>
        <time>2013-03-23T19:05:49.000Z</time>
      </trkpt>
      <trkpt lat="45.79779" lon="6.10585">
        <ele>1671.1999511719</ele>
        <time>2013-03-23T19:05:54.000Z</time>
      </trkpt>
      <trkpt lat="45.79775" lon="6.1058">
        <ele>1672</ele>
        <time>2013-03-23T19:06:00.000Z</time>
      </trkpt>
      <trkpt lat="45.79775" lon="6.10579">
        <ele>1672</ele>
        <time>2013-03-23T19:06:01.000Z</time>
      </trkpt>
      <trkpt lat="45.79774" lon="6.10577">
        <ele>1672.1999511719</ele>
        <time>2013-03-23T19:06:03.000Z</time>
      </trkpt>
      <trkpt lat="45.79773" lon="6.10574">
        <ele>1672.1999511719</ele>
        <time>2013-03-23T19:06:10.000Z</time>
      </trkpt>
      <trkpt lat="45.79772" lon="6.1057">
        <ele>1672.1999511719</ele>
        <time>2013-03-23T19:06:44.000Z</time>
      </trkpt>
      <trkpt lat="45.7977" lon="6.10565">
        <ele>1672.5999755859</ele>
        <time>2013-03-23T19:06:51.000Z</time>
      </trkpt>
      <trkpt lat="45.79767" lon="6.10558">
        <ele>1673.1999511719</ele>
        <time>2013-03-23T19:07:00.000Z</time>
      </trkpt>
      <trkpt lat="45.79763" lon="6.1055">
        <ele>1674</ele>
        <time>2013-03-23T19:07:10.000Z</time>
      </trkpt>
      <trkpt lat="45.7976" lon="6.10541">
        <ele>1675.1999511719</ele>
        <time>2013-03-23T19:07:20.000Z</time>
      </trkpt>
      <trkpt lat="45.79756" lon="6.10534">
        <ele>1676.4000244141</ele>
        <time>2013-03-23T19:07:28.000Z</time>
      </trkpt>
      <trkpt lat="45.79752" lon="6.10527">
        <ele>1678</ele>
        <time>2013-03-23T19:07:36.000Z</time>
      </trkpt>
      <trkpt lat="45.79748" lon="6.1052">
        <ele>1678.8000488281</ele>
        <time>2013-03-23T19:07:44.000Z</time>
      </trkpt>
      <trkpt lat="45.79745" lon="6.10513">
        <ele>1679</ele>
        <time>2013-03-23T19:07:52.000Z</time>
      </trkpt>
      <trkpt lat="45.79741" lon="6.10506">
        <ele>1679</ele>
        <time>2013-03-23T19:08:00.000Z</time>
      </trkpt>
      <trkpt lat="45.79737" lon="6.10498">
        <ele>1679</ele>
        <time>2013-03-23T19:08:09.000Z</time>
      </trkpt>
      <trkpt lat="45.79732" lon="6.10489">
        <ele>1678.4000244141</ele>
        <time>2013-03-23T19:08:19.000Z</time>
      </trkpt>
      <trkpt lat="45.79727" lon="6.10482">
        <ele>1678.1999511719</ele>
        <time>2013-03-23T19:08:28.000Z</time>
      </trkpt>
      <trkpt lat="45.79723" lon="6.10476">
        <ele>1678</ele>
        <time>2013-03-23T19:08:37.000Z</time>
      </trkpt>
      <trkpt lat="45.79719" lon="6.1047">
        <ele>1678</ele>
        <time>2013-03-23T19:08:46.000Z</time>
      </trkpt>
      <trkpt lat="45.79714" lon="6.10467">
        <ele>1678.4000244141</ele>
        <time>2013-03-23T19:08:54.000Z</time>
      </trkpt>
      <trkpt lat="45.79713" lon="6.10466">
        <ele>1678.4000244141</ele>
        <time>2013-03-23T19:09:02.000Z</time>
      </trkpt>
      <trkpt lat="45.79713" lon="6.10466">
        <ele>1678.4000244141</ele>
        <time>2013-03-23T19:09:33.000Z</time>
      </trkpt>
      <trkpt lat="45.79713" lon="6.10467">
        <ele>1678.4000244141</ele>
        <time>2013-03-23T19:09:40.000Z</time>
      </trkpt>
      <trkpt lat="45.79713" lon="6.10466">
        <ele>1678.4000244141</ele>
        <time>2013-03-23T19:09:51.000Z</time>
      </trkpt>
      <trkpt lat="45.79713" lon="6.10466">
        <ele>1678.4000244141</ele>
        <time>2013-03-23T19:09:51.000Z</time>
      </trkpt>
      <trkpt lat="45.79713" lon="6.10466">
        <ele>1678.4000244141</ele>
        <time>2013-03-23T19:09:52.000Z</time>
      </trkpt>
      <trkpt lat="45.79713" lon="6.10466">
        <ele>1678.4000244141</ele>
        <time>2013-03-23T19:09:52.000Z</time>
      </trkpt>
      <trkpt lat="45.79713" lon="6.10466">
        <ele>1678.4000244141</ele>
        <time>2013-03-23T19:09:55.000Z</time>
      </trkpt>
      <trkpt lat="45.79713" lon="6.10466">
        <ele>1678.4000244141</ele>
        <time>2013-03-23T19:10:16.000Z</time>
      </trkpt>
      <trkpt lat="45.79711" lon="6.10467">
        <ele>1678.5999755859</ele>
        <time>2013-03-23T19:10:36.000Z</time>
      </trkpt>
      <trkpt lat="45.79711" lon="6.10466">
        <ele>1678.5999755859</ele>
        <time>2013-03-23T19:10:59.000Z</time>
      </trkpt>
      <trkpt lat="45.79711" lon="6.10465">
        <ele>1678.5999755859</ele>
        <time>2013-03-23T19:11:09.000Z</time>
      </trkpt>
      <trkpt lat="45.79709" lon="6.10465">
        <ele>1678.8000488281</ele>
        <time>2013-03-23T19:11:13.000Z</time>
      </trkpt>
      <trkpt lat="45.79709" lon="6.10463">
        <ele>1678.8000488281</ele>
        <time>2013-03-23T19:11:18.000Z</time>
      </trkpt>
      <trkpt lat="45.79705" lon="6.10458">
        <ele>1679</ele>
        <time>2013-03-23T19:12:09.000Z</time>
      </trkpt>
      <trkpt lat="45.79693" lon="6.1045">
        <ele>1680.4000244141</ele>
        <time>2013-03-23T19:12:15.000Z</time>
      </trkpt>
      <trkpt lat="45.79685" lon="6.10449">
        <ele>1681.4000244141</ele>
        <time>2013-03-23T19:12:17.000Z</time>
      </trkpt>
      <trkpt lat="45.79674" lon="6.10428">
        <ele>1683.8000488281</ele>
        <time>2013-03-23T19:12:21.000Z</time>
      </trkpt>
      <trkpt lat="45.79673" lon="6.10407">
        <ele>1683</ele>
        <time>2013-03-23T19:12:24.000Z</time>
      </trkpt>
      <trkpt lat="45.79675" lon="6.10383">
        <ele>1679.4000244141</ele>
        <time>2013-03-23T19:12:27.000Z</time>
      </trkpt>
      <trkpt lat="45.7968" lon="6.10344">
        <ele>1672.8000488281</ele>
        <time>2013-03-23T19:12:31.000Z</time>
      </trkpt>
      <trkpt lat="45.79678" lon="6.10323">
        <ele>1670.4000244141</ele>
        <time>2013-03-23T19:12:33.000Z</time>
      </trkpt>
      <trkpt lat="45.7968" lon="6.10289">
        <ele>1665.8000488281</ele>
        <time>2013-03-23T19:12:36.000Z</time>
      </trkpt>
      <trkpt lat="45.79684" lon="6.10256">
        <ele>1661.1999511719</ele>
        <time>2013-03-23T19:12:39.000Z</time>
      </trkpt>
      <trkpt lat="45.79688" lon="6.10224">
        <ele>1656.5999755859</ele>
        <time>2013-03-23T19:12:42.000Z</time>
      </trkpt>
      <trkpt lat="45.79697" lon="6.10196">
        <ele>1651.5999755859</ele>
        <time>2013-03-23T19:12:45.000Z</time>
      </trkpt>
      <trkpt lat="45.79706" lon="6.10172">
        <ele>1647</ele>
        <time>2013-03-23T19:12:48.000Z</time>
      </trkpt>
      <trkpt lat="45.79715" lon="6.10151">
        <ele>1643</ele>
        <time>2013-03-23T19:12:51.000Z</time>
      </trkpt>
      <trkpt lat="45.7972" lon="6.10131">
        <ele>1639.5999755859</ele>
        <time>2013-03-23T19:12:54.000Z</time>
      </trkpt>
      <trkpt lat="45.79725" lon="6.10116">
        <ele>1637.1999511719</ele>
        <time>2013-03-23T19:12:56.000Z</time>
      </trkpt>
      <trkpt lat="45.79732" lon="6.10101">
        <ele>1634.1999511719</ele>
        <time>2013-03-23T19:12:58.000Z</time>
      </trkpt>
      <trkpt lat="45.79747" lon="6.10076">
        <ele>1628.5999755859</ele>
        <time>2013-03-23T19:13:01.000Z</time>
      </trkpt>
      <trkpt lat="45.79755" lon="6.10057">
        <ele>1624.1999511719</ele>
        <time>2013-03-23T19:13:03.000Z</time>
      </trkpt>
      <trkpt lat="45.79768" lon="6.10044">
        <ele>1619.8000488281</ele>
        <time>2013-03-23T19:13:05.000Z</time>
      </trkpt>
      <trkpt lat="45.79791" lon="6.10012">
        <ele>1612.4000244141</ele>
        <time>2013-03-23T19:13:09.000Z</time>
      </trkpt>
      <trkpt lat="45.79814" lon="6.09985">
        <ele>1606.8000488281</ele>
        <time>2013-03-23T19:13:13.000Z</time>
      </trkpt>
      <trkpt lat="45.79831" lon="6.09969">
        <ele>1602.4000244141</ele>
        <time>2013-03-23T19:13:16.000Z</time>
      </trkpt>
      <trkpt lat="45.79848" lon="6.09947">
        <ele>1595.8000488281</ele>
        <time>2013-03-23T19:13:19.000Z</time>
      </trkpt>
      <trkpt lat="45.79876" lon="6.09924">
        <ele>1587.4000244141</ele>
        <time>2013-03-23T19:13:23.000Z</time>
      </trkpt>
      <trkpt lat="45.79891" lon="6.09912">
        <ele>1583.4000244141</ele>
        <time>2013-03-23T19:13:25.000Z</time>
      </trkpt>
      <trkpt lat="45.79905" lon="6.09901">
        <ele>1579</ele>
        <time>2013-03-23T19:13:28.000Z</time>
      </trkpt>
      <trkpt lat="45.79917" lon="6.09896">
        <ele>1575.5999755859</ele>
        <time>2013-03-23T19:13:31.000Z</time>
      </trkpt>
      <trkpt lat="45.79927" lon="6.09889">
        <ele>1571.5999755859</ele>
        <time>2013-03-23T19:13:33.000Z</time>
      </trkpt>
      <trkpt lat="45.79938" lon="6.09885">
        <ele>1567.8000488281</ele>
        <time>2013-03-23T19:13:35.000Z</time>
      </trkpt>
      <trkpt lat="45.79947" lon="6.09878">
        <ele>1564.4000244141</ele>
        <time>2013-03-23T19:13:37.000Z</time>
      </trkpt>
      <trkpt lat="45.79956" lon="6.09872">
        <ele>1560.8000488281</ele>
        <time>2013-03-23T19:13:39.000Z</time>
      </trkpt>
      <trkpt lat="45.79965" lon="6.09865">
        <ele>1557.5999755859</ele>
        <time>2013-03-23T19:13:41.000Z</time>
      </trkpt>
      <trkpt lat="45.79976" lon="6.09857">
        <ele>1553.4000244141</ele>
        <time>2013-03-23T19:13:43.000Z</time>
      </trkpt>
      <trkpt lat="45.79986" lon="6.09846">
        <ele>1549.8000488281</ele>
        <time>2013-03-23T19:13:45.000Z</time>
      </trkpt>
      <trkpt lat="45.79996" lon="6.09837">
        <ele>1546.4000244141</ele>
        <time>2013-03-23T19:13:47.000Z</time>
      </trkpt>
      <trkpt lat="45.80011" lon="6.09831">
        <ele>1542</ele>
        <time>2013-03-23T19:13:50.000Z</time>
      </trkpt>
      <trkpt lat="45.80022" lon="6.09825">
        <ele>1538.5999755859</ele>
        <time>2013-03-23T19:13:52.000Z</time>
      </trkpt>
      <trkpt lat="45.80035" lon="6.09822">
        <ele>1535.4000244141</ele>
        <time>2013-03-23T19:13:54.000Z</time>
      </trkpt>
      <trkpt lat="45.80062" lon="6.09797">
        <ele>1525.8000488281</ele>
        <time>2013-03-23T19:13:58.000Z</time>
      </trkpt>
      <trkpt lat="45.80082" lon="6.09777">
        <ele>1518.1999511719</ele>
        <time>2013-03-23T19:14:01.000Z</time>
      </trkpt>
      <trkpt lat="45.80092" lon="6.0976">
        <ele>1513.8000488281</ele>
        <time>2013-03-23T19:14:03.000Z</time>
      </trkpt>
      <trkpt lat="45.80102" lon="6.09755">
        <ele>1510.4000244141</ele>
        <time>2013-03-23T19:14:05.000Z</time>
      </trkpt>
      <trkpt lat="45.80135" lon="6.09754">
        <ele>1501.8000488281</ele>
        <time>2013-03-23T19:14:10.000Z</time>
      </trkpt>
      <trkpt lat="45.80151" lon="6.09755">
        <ele>1497.4000244141</ele>
        <time>2013-03-23T19:14:12.000Z</time>
      </trkpt>
      <trkpt lat="45.80174" lon="6.09759">
        <ele>1492.4000244141</ele>
        <time>2013-03-23T19:14:15.000Z</time>
      </trkpt>
      <trkpt lat="45.80182" lon="6.0976">
        <ele>1491</ele>
        <time>2013-03-23T19:14:16.000Z</time>
      </trkpt>
      <trkpt lat="45.80243" lon="6.09766">
        <ele>1480.1999511719</ele>
        <time>2013-03-23T19:14:22.000Z</time>
      </trkpt>
      <trkpt lat="45.80254" lon="6.09766">
        <ele>1478.8000488281</ele>
        <time>2013-03-23T19:14:23.000Z</time>
      </trkpt>
      <trkpt lat="45.80265" lon="6.09765">
        <ele>1478.4000244141</ele>
        <time>2013-03-23T19:14:24.000Z</time>
      </trkpt>
      <trkpt lat="45.80265" lon="6.09765">
        <ele>1478.4000244141</ele>
        <time>2013-03-23T19:14:24.000Z</time>
      </trkpt>
      <trkpt lat="45.80296" lon="6.0975">
        <ele>1476.8000488281</ele>
        <time>2013-03-23T19:14:27.000Z</time>
      </trkpt>
      <trkpt lat="45.80334" lon="6.09716">
        <ele>1476.8000488281</ele>
        <time>2013-03-23T19:14:32.000Z</time>
      </trkpt>
      <trkpt lat="45.80347" lon="6.09702">
        <ele>1477.1999511719</ele>
        <time>2013-03-23T19:14:35.000Z</time>
      </trkpt>
      <trkpt lat="45.80353" lon="6.09695">
        <ele>1477.4000244141</ele>
        <time>2013-03-23T19:14:38.000Z</time>
      </trkpt>
      <trkpt lat="45.80361" lon="6.09684">
        <ele>1477.8000488281</ele>
        <time>2013-03-23T19:14:43.000Z</time>
      </trkpt>
      <trkpt lat="45.80369" lon="6.09673">
        <ele>1478.1999511719</ele>
        <time>2013-03-23T19:14:48.000Z</time>
      </trkpt>
      <trkpt lat="45.80378" lon="6.09663">
        <ele>1478.4000244141</ele>
        <time>2013-03-23T19:14:52.000Z</time>
      </trkpt>
      <trkpt lat="45.80384" lon="6.09656">
        <ele>1478.5999755859</ele>
        <time>2013-03-23T19:14:56.000Z</time>
      </trkpt>
      <trkpt lat="45.80394" lon="6.09644">
        <ele>1478.8000488281</ele>
        <time>2013-03-23T19:15:02.000Z</time>
      </trkpt>
      <trkpt lat="45.80401" lon="6.09636">
        <ele>1479</ele>
        <time>2013-03-23T19:15:06.000Z</time>
      </trkpt>
      <trkpt lat="45.80414" lon="6.09637">
        <ele>1479.1999511719</ele>
        <time>2013-03-23T19:15:12.000Z</time>
      </trkpt>
      <trkpt lat="45.80424" lon="6.09643">
        <ele>1479.8000488281</ele>
        <time>2013-03-23T19:15:16.000Z</time>
      </trkpt>
      <trkpt lat="45.80429" lon="6.0965">
        <ele>1480.1999511719</ele>
        <time>2013-03-23T19:15:20.000Z</time>
      </trkpt>
      <trkpt lat="45.80434" lon="6.09656">
        <ele>1480.5999755859</ele>
        <time>2013-03-23T19:15:25.000Z</time>
      </trkpt>
      <trkpt lat="45.80439" lon="6.09663">
        <ele>1481.1999511719</ele>
        <time>2013-03-23T19:15:29.000Z</time>
      </trkpt>
      <trkpt lat="45.80445" lon="6.09671">
        <ele>1481.4000244141</ele>
        <time>2013-03-23T19:15:34.000Z</time>
      </trkpt>
      <trkpt lat="45.8045" lon="6.09678">
        <ele>1481.8000488281</ele>
        <time>2013-03-23T19:15:38.000Z</time>
      </trkpt>
      <trkpt lat="45.80456" lon="6.09687">
        <ele>1482.1999511719</ele>
        <time>2013-03-23T19:15:43.000Z</time>
      </trkpt>
      <trkpt lat="45.80461" lon="6.09697">
        <ele>1482.4000244141</ele>
        <time>2013-03-23T19:15:48.000Z</time>
      </trkpt>
      <trkpt lat="45.80466" lon="6.09705">
        <ele>1482.8000488281</ele>
        <time>2013-03-23T19:15:53.000Z</time>
      </trkpt>
      <trkpt lat="45.80472" lon="6.09713">
        <ele>1483</ele>
        <time>2013-03-23T19:15:57.000Z</time>
      </trkpt>
      <trkpt lat="45.80477" lon="6.09721">
        <ele>1483.4000244141</ele>
        <time>2013-03-23T19:16:02.000Z</time>
      </trkpt>
      <trkpt lat="45.80485" lon="6.09731">
        <ele>1483.8000488281</ele>
        <time>2013-03-23T19:16:07.000Z</time>
      </trkpt>
      <trkpt lat="45.8049" lon="6.09739">
        <ele>1484.1999511719</ele>
        <time>2013-03-23T19:16:12.000Z</time>
      </trkpt>
      <trkpt lat="45.80498" lon="6.09749">
        <ele>1484.8000488281</ele>
        <time>2013-03-23T19:16:18.000Z</time>
      </trkpt>
      <trkpt lat="45.80504" lon="6.09756">
        <ele>1484.8000488281</ele>
        <time>2013-03-23T19:16:23.000Z</time>
      </trkpt>
      <trkpt lat="45.80511" lon="6.09765">
        <ele>1484.8000488281</ele>
        <time>2013-03-23T19:16:29.000Z</time>
      </trkpt>
      <trkpt lat="45.80517" lon="6.09772">
        <ele>1484.8000488281</ele>
        <time>2013-03-23T19:16:35.000Z</time>
      </trkpt>
      <trkpt lat="45.80518" lon="6.09776">
        <ele>1484.8000488281</ele>
        <time>2013-03-23T19:16:38.000Z</time>
      </trkpt>
      <trkpt lat="45.80521" lon="6.09781">
        <ele>1484.5999755859</ele>
        <time>2013-03-23T19:16:42.000Z</time>
      </trkpt>
      <trkpt lat="45.80524" lon="6.09786">
        <ele>1484.5999755859</ele>
        <time>2013-03-23T19:16:46.000Z</time>
      </trkpt>
      <trkpt lat="45.80529" lon="6.09793">
        <ele>1484.8000488281</ele>
        <time>2013-03-23T19:16:51.000Z</time>
      </trkpt>
      <trkpt lat="45.80534" lon="6.098">
        <ele>1484.8000488281</ele>
        <time>2013-03-23T19:16:54.000Z</time>
      </trkpt>
      <trkpt lat="45.80549" lon="6.09828">
        <ele>1485.1999511719</ele>
        <time>2013-03-23T19:17:01.000Z</time>
      </trkpt>
      <trkpt lat="45.8056" lon="6.0984">
        <ele>1485.5999755859</ele>
        <time>2013-03-23T19:17:06.000Z</time>
      </trkpt>
      <trkpt lat="45.80568" lon="6.09848">
        <ele>1486</ele>
        <time>2013-03-23T19:17:11.000Z</time>
      </trkpt>
      <trkpt lat="45.80577" lon="6.09854">
        <ele>1486.4000244141</ele>
        <time>2013-03-23T19:17:15.000Z</time>
      </trkpt>
      <trkpt lat="45.80587" lon="6.09864">
        <ele>1486.5999755859</ele>
        <time>2013-03-23T19:17:21.000Z</time>
      </trkpt>
      <trkpt lat="45.80594" lon="6.0987">
        <ele>1486.4000244141</ele>
        <time>2013-03-23T19:17:25.000Z</time>
      </trkpt>
      <trkpt lat="45.80604" lon="6.09879">
        <ele>1486.5999755859</ele>
        <time>2013-03-23T19:17:30.000Z</time>
      </trkpt>
      <trkpt lat="45.8061" lon="6.09887">
        <ele>1486.8000488281</ele>
        <time>2013-03-23T19:17:34.000Z</time>
      </trkpt>
      <trkpt lat="45.80616" lon="6.09895">
        <ele>1487</ele>
        <time>2013-03-23T19:17:38.000Z</time>
      </trkpt>
      <trkpt lat="45.80623" lon="6.09905">
        <ele>1487.5999755859</ele>
        <time>2013-03-23T19:17:43.000Z</time>
      </trkpt>
      <trkpt lat="45.80627" lon="6.09915">
        <ele>1488</ele>
        <time>2013-03-23T19:17:48.000Z</time>
      </trkpt>
      <trkpt lat="45.80627" lon="6.09916">
        <ele>1488.1999511719</ele>
        <time>2013-03-23T19:17:49.000Z</time>
      </trkpt>
      <trkpt lat="45.80631" lon="6.09929">
        <ele>1488.8000488281</ele>
        <time>2013-03-23T19:17:56.000Z</time>
      </trkpt>
      <trkpt lat="45.80632" lon="6.09931">
        <ele>1489</ele>
        <time>2013-03-23T19:17:57.000Z</time>
      </trkpt>
      <trkpt lat="45.80637" lon="6.09942">
        <ele>1489.8000488281</ele>
        <time>2013-03-23T19:18:02.000Z</time>
      </trkpt>
      <trkpt lat="45.8064" lon="6.09953">
        <ele>1490.5999755859</ele>
        <time>2013-03-23T19:18:07.000Z</time>
      </trkpt>
      <trkpt lat="45.80647" lon="6.09969">
        <ele>1491.8000488281</ele>
        <time>2013-03-23T19:18:14.000Z</time>
      </trkpt>
      <trkpt lat="45.8065" lon="6.0998">
        <ele>1492.4000244141</ele>
        <time>2013-03-23T19:18:19.000Z</time>
      </trkpt>
      <trkpt lat="45.80655" lon="6.09993">
        <ele>1493.4000244141</ele>
        <time>2013-03-23T19:18:25.000Z</time>
      </trkpt>
      <trkpt lat="45.80659" lon="6.10005">
        <ele>1494</ele>
        <time>2013-03-23T19:18:31.000Z</time>
      </trkpt>
      <trkpt lat="45.80662" lon="6.10015">
        <ele>1494.4000244141</ele>
        <time>2013-03-23T19:18:36.000Z</time>
      </trkpt>
      <trkpt lat="45.80666" lon="6.10026">
        <ele>1494.8000488281</ele>
        <time>2013-03-23T19:18:42.000Z</time>
      </trkpt>
      <trkpt lat="45.8067" lon="6.10037">
        <ele>1495</ele>
        <time>2013-03-23T19:18:47.000Z</time>
      </trkpt>
      <trkpt lat="45.80673" lon="6.10048">
        <ele>1495</ele>
        <time>2013-03-23T19:18:53.000Z</time>
      </trkpt>
      <trkpt lat="45.80673" lon="6.1005">
        <ele>1495</ele>
        <time>2013-03-23T19:18:54.000Z</time>
      </trkpt>
      <trkpt lat="45.80676" lon="6.1006">
        <ele>1495.1999511719</ele>
        <time>2013-03-23T19:18:59.000Z</time>
      </trkpt>
      <trkpt lat="45.80682" lon="6.10074">
        <ele>1495.4000244141</ele>
        <time>2013-03-23T19:19:06.000Z</time>
      </trkpt>
      <trkpt lat="45.80684" lon="6.1008">
        <ele>1495.5999755859</ele>
        <time>2013-03-23T19:19:09.000Z</time>
      </trkpt>
      <trkpt lat="45.80689" lon="6.10083">
        <ele>1495.5999755859</ele>
        <time>2013-03-23T19:19:15.000Z</time>
      </trkpt>
      <trkpt lat="45.8069" lon="6.10084">
        <ele>1495.8000488281</ele>
        <time>2013-03-23T19:19:19.000Z</time>
      </trkpt>
      <trkpt lat="45.80692" lon="6.10087">
        <ele>1495.8000488281</ele>
        <time>2013-03-23T19:19:25.000Z</time>
      </trkpt>
      <trkpt lat="45.80694" lon="6.1009">
        <ele>1495.8000488281</ele>
        <time>2013-03-23T19:19:29.000Z</time>
      </trkpt>
      <trkpt lat="45.80696" lon="6.10092">
        <ele>1495.8000488281</ele>
        <time>2013-03-23T19:19:34.000Z</time>
      </trkpt>
      <trkpt lat="45.80699" lon="6.10097">
        <ele>1496</ele>
        <time>2013-03-23T19:19:38.000Z</time>
      </trkpt>
      <trkpt lat="45.80704" lon="6.10104">
        <ele>1496</ele>
        <time>2013-03-23T19:19:44.000Z</time>
      </trkpt>
      <trkpt lat="45.80714" lon="6.10107">
        <ele>1496.1999511719</ele>
        <time>2013-03-23T19:19:50.000Z</time>
      </trkpt>
      <trkpt lat="45.80719" lon="6.10107">
        <ele>1496.4000244141</ele>
        <time>2013-03-23T19:19:55.000Z</time>
      </trkpt>
      <trkpt lat="45.8072" lon="6.10106">
        <ele>1496.4000244141</ele>
        <time>2013-03-23T19:20:07.000Z</time>
      </trkpt>
      <trkpt lat="45.80721" lon="6.10105">
        <ele>1496.5999755859</ele>
        <time>2013-03-23T19:20:13.000Z</time>
      </trkpt>
      <trkpt lat="45.80723" lon="6.10107">
        <ele>1496.5999755859</ele>
        <time>2013-03-23T19:20:17.000Z</time>
      </trkpt>
      <trkpt lat="45.80722" lon="6.1011">
        <ele>1496.4000244141</ele>
        <time>2013-03-23T19:20:22.000Z</time>
      </trkpt>
      <trkpt lat="45.8072" lon="6.1011">
        <ele>1496.4000244141</ele>
        <time>2013-03-23T19:20:28.000Z</time>
      </trkpt>
      <trkpt lat="45.8072" lon="6.1011">
        <ele>1496.4000244141</ele>
        <time>2013-03-23T19:20:54.000Z</time>
      </trkpt>
      <trkpt lat="45.80721" lon="6.10113">
        <ele>1496.4000244141</ele>
        <time>2013-03-23T19:20:59.000Z</time>
      </trkpt>
      <trkpt lat="45.80719" lon="6.10114">
        <ele>1496.4000244141</ele>
        <time>2013-03-23T19:21:04.000Z</time>
      </trkpt>
      <trkpt lat="45.80719" lon="6.10114">
        <ele>1496.4000244141</ele>
        <time>2013-03-23T19:21:21.000Z</time>
      </trkpt>
      <trkpt lat="45.80719" lon="6.10117">
        <ele>1496.1999511719</ele>
        <time>2013-03-23T19:21:26.000Z</time>
      </trkpt>
      <trkpt lat="45.8072" lon="6.10116">
        <ele>1496.4000244141</ele>
        <time>2013-03-23T19:21:38.000Z</time>
      </trkpt>
      <trkpt lat="45.80722" lon="6.10115">
        <ele>1496.4000244141</ele>
        <time>2013-03-23T19:21:45.000Z</time>
      </trkpt>
      <trkpt lat="45.80724" lon="6.10116">
        <ele>1496.4000244141</ele>
        <time>2013-03-23T19:21:48.000Z</time>
      </trkpt>
      <trkpt lat="45.80731" lon="6.10115">
        <ele>1496.5999755859</ele>
        <time>2013-03-23T19:21:55.000Z</time>
      </trkpt>
      <trkpt lat="45.80736" lon="6.10113">
        <ele>1496.8000488281</ele>
        <time>2013-03-23T19:22:00.000Z</time>
      </trkpt>
      <trkpt lat="45.80735" lon="6.10118">
        <ele>1496.5999755859</ele>
        <time>2013-03-23T19:22:05.000Z</time>
      </trkpt>
      <trkpt lat="45.80734" lon="6.10119">
        <ele>1496.5999755859</ele>
        <time>2013-03-23T19:22:06.000Z</time>
      </trkpt>
      <trkpt lat="45.80729" lon="6.10126">
        <ele>1496.4000244141</ele>
        <time>2013-03-23T19:22:13.000Z</time>
      </trkpt>
      <trkpt lat="45.80729" lon="6.10127">
        <ele>1496.4000244141</ele>
        <time>2013-03-23T19:22:14.000Z</time>
      </trkpt>
      <trkpt lat="45.80732" lon="6.1013">
        <ele>1496.4000244141</ele>
        <time>2013-03-23T19:22:19.000Z</time>
      </trkpt>
      <trkpt lat="45.80738" lon="6.10129">
        <ele>1496.5999755859</ele>
        <time>2013-03-23T19:22:27.000Z</time>
      </trkpt>
      <trkpt lat="45.80739" lon="6.10127">
        <ele>1496.5999755859</ele>
        <time>2013-03-23T19:22:57.000Z</time>
      </trkpt>
    </trkseg>
  </trk>
</gpx>